Home > Products > Valid Products > TAF

000
FTUS41 KOKX 251700
TAFBDR
TAF
KBDR 251734Z 2518/2618 25010G18KT P6SM SCT050
     FM252300 25008KT P6SM BKN050
     FM260900 29010G18KT P6SM SCT050
     FM261500 30016G28KT P6SM SCT050=



000
FTUS41 KOKX 251700
TAFLGA
TAF
KLGA 251734Z 2518/2618 26012G20KT P6SM SCT050
     FM252300 25012KT P6SM BKN050
     FM260900 29014G22KT P6SM SCT050
     FM261500 30020G30KT P6SM SCT050=



000
FTUS41 KOKX 251700
TAFTEB
TAF
KTEB 251734Z 2518/2618 26010G17KT P6SM SCT050
     FM252300 26008KT P6SM BKN050
     FM260900 30010G16KT P6SM SCT050
     FM261500 30015G28KT P6SM SCT050=



000
FTUS41 KOKX 251700
TAFEWR
TAF
KEWR 251734Z 2518/2624 26012G20KT P6SM SCT050
     FM252300 25012KT P6SM BKN050
     FM260900 28012G20KT P6SM SCT050
     FM261500 30018G28KT P6SM SCT050
     FM262200 30016G27KT P6SM FEW050=



000
FTUS41 KOKX 251700
TAFJFK
TAF
KJFK 251734Z 2518/2624 25014G20KT P6SM SCT050
     FM252300 26014KT P6SM BKN050
     FM260900 29014G22KT P6SM SCT050
     FM261500 30020G30KT P6SM SCT050
     FM262200 29016G27KT P6SM FEW050=



000
FTUS41 KOKX 251700
TAFSWF
TAF
KSWF 251734Z 2518/2624 27010G17KT P6SM SCT050
     FM252200 27009KT P6SM BKN050
     FM261200 29012G19KT P6SM BKN050
     FM261600 30020G30KT P6SM BKN050
      AMD NOT SKED=



000
FTUS41 KOKX 251700
TAFGON
TAF
KGON 251734Z 2518/2618 25011G20KT P6SM FEW045
     FM252300 24010KT P6SM SCT045
     FM260700 28010KT P6SM SCT045
     FM261500 30016G30KT P6SM SCT050=



000
FTUS41 KOKX 251700
TAFISP
TAF
KISP 251734Z 2518/2618 25012G18KT P6SM FEW050
     FM260000 25012KT P6SM SCT050
     FM260900 28012G20KT P6SM SCT050
     FM261500 30018G30KT P6SM SCT050=



000
FTUS41 KOKX 251700
TAFISP
TAF
KISP 251734Z 2518/2618 25012G18KT P6SM FEW050
     FM260000 25012KT P6SM SCT050
     FM260900 28012G20KT P6SM SCT050
     FM261500 30018G30KT P6SM SCT050=



000
FTUS41 KOKX 251700
TAFEWR
TAF
KEWR 251734Z 2518/2624 26012G20KT P6SM SCT050
     FM252300 25012KT P6SM BKN050
     FM260900 28012G20KT P6SM SCT050
     FM261500 30018G28KT P6SM SCT050
     FM262200 30016G27KT P6SM FEW050=



000
FTUS41 KOKX 251700
TAFBDR
TAF
KBDR 251734Z 2518/2618 25010G18KT P6SM SCT050
     FM252300 25008KT P6SM BKN050
     FM260900 29010G18KT P6SM SCT050
     FM261500 30016G28KT P6SM SCT050=



000
FTUS41 KOKX 251700
TAFTEB
TAF
KTEB 251734Z 2518/2618 26010G17KT P6SM SCT050
     FM252300 26008KT P6SM BKN050
     FM260900 30010G16KT P6SM SCT050
     FM261500 30015G28KT P6SM SCT050=



000
FTUS41 KOKX 251700
TAFLGA
TAF
KLGA 251734Z 2518/2618 26012G20KT P6SM SCT050
     FM252300 25012KT P6SM BKN050
     FM260900 29014G22KT P6SM SCT050
     FM261500 30020G30KT P6SM SCT050=



000
FTUS41 KOKX 251700
TAFJFK
TAF
KJFK 251734Z 2518/2624 25014G20KT P6SM SCT050
     FM252300 26014KT P6SM BKN050
     FM260900 29014G22KT P6SM SCT050
     FM261500 30020G30KT P6SM SCT050
     FM262200 29016G27KT P6SM FEW050=



000
FTUS41 KOKX 251700
TAFSWF
TAF
KSWF 251734Z 2518/2624 27010G17KT P6SM SCT050
     FM252200 27009KT P6SM BKN050
     FM261200 29012G19KT P6SM BKN050
     FM261600 30020G30KT P6SM BKN050
      AMD NOT SKED=



000
FTUS41 KOKX 251700
TAFGON
TAF
KGON 251734Z 2518/2618 25011G20KT P6SM FEW045
     FM252300 24010KT P6SM SCT045
     FM260700 28010KT P6SM SCT045
     FM261500 30016G30KT P6SM SCT050=



000
FTUS41 KOKX 251400 AAA
TAFISP
TAF AMD
KISP 251433Z 2515/2612 28010KT P6SM FEW050
     FM251800 25012G19KT P6SM FEW050
     FM260000 26012KT P6SM SCT050
     FM260900 29012G19KT P6SM SCT050=



000
FTUS41 KOKX 251400 AAA
TAFEWR
TAF AMD
KEWR 251433Z 2515/2618 27010KT P6SM FEW050
     FM251800 25012G22KT P6SM SCT050
     FM252300 25012KT P6SM BKN050
     FM260900 28012G20KT P6SM SCT050
     FM261500 28020G30KT P6SM SCT050=



000
FTUS41 KOKX 251400 AAA
TAFSWF
TAF AMD
KSWF 251433Z 2515/2618 29009KT P6SM SCT050
      TEMPO 2515/2518 BKN050
     FM251800 27010G17KT P6SM SCT050
     FM252200 27009KT P6SM BKN050
     FM261200 29012G19KT P6SM SCT050
     FM261600 30020G30KT P6SM SCT050
      AMD NOT SKED=



000
FTUS41 KOKX 251400 AAA
TAFTEB
TAF AMD
KTEB 251433Z 2515/2612 28008KT P6SM FEW050
     FM251800 26010G17KT P6SM SCT050
     FM252300 26010KT P6SM BKN050
     FM260900 30010G16KT P6SM SCT050=



000
FTUS41 KOKX 251400 AAA
TAFBDR
TAF AMD
KBDR 251433Z 2515/2612 28009KT P6SM SCT050
     FM251800 25012G18KT P6SM SCT050
     FM252300 25010KT P6SM BKN050
     FM260900 29011G18KT P6SM SCT050=



000
FTUS41 KOKX 251400 AAA
TAFGON
TAF AMD
KGON 251433Z 2515/2612 28005KT P6SM SKC
     FM251700 25011G20KT P6SM FEW045
     FM252300 24010KT P6SM SCT045
     FM260700 28010KT P6SM SCT045=



000
FTUS41 KOKX 251400 AAA
TAFJFK
TAF AMD
KJFK 251433Z 2515/2618 29011KT P6SM FEW050
     FM251800 25013G21KT P6SM SCT050
     FM252300 26015KT P6SM BKN050
     FM260900 29015G21KT P6SM SCT050
     FM261500 30019G28KT P6SM SCT050=



000
FTUS41 KOKX 251400 AAA
TAFLGA
TAF AMD
KLGA 251433Z 2515/2612 29011KT P6SM FEW050
     FM251800 25012G21KT P6SM SCT050
     FM252300 26014KT P6SM BKN050
     FM260900 29014G22KT P6SM SCT050=



000
FTUS41 KOKX 251100
TAFSWF
TAF
KSWF 251134Z 2512/2618 30005KT P6SM FEW050
     FM251500 29009KT P6SM FEW050
     FM251700 27010G17KT P6SM SCT050
     FM252200 27009KT P6SM BKN050
     FM261200 29012G19KT P6SM SCT050
     FM261600 30020G30KT P6SM SCT050
      AMD NOT SKED=



000
FTUS41 KOKX 251100
TAFLGA
TAF
KLGA 251134Z 2512/2612 30009KT P6SM SKC
     FM251400 29011KT P6SM FEW050
     FM251800 25012G21KT P6SM SCT050
     FM252300 26014KT P6SM BKN050
     FM260900 29014G22KT P6SM SCT050=



000
FTUS41 KOKX 251100
TAFISP
TAF
KISP 251134Z 2512/2612 VRB04KT P6SM FEW250
     FM251400 28010KT P6SM SKC
     FM251800 25012G19KT P6SM FEW050
     FM260000 26012KT P6SM SCT050
     FM260900 29012G19KT P6SM SCT050=



000
FTUS41 KOKX 251100
TAFBDR
TAF
KBDR 251134Z 2512/2612 VRB03KT P6SM FEW250
     FM251500 28009KT P6SM SKC
     FM251800 25012G18KT P6SM SCT050
     FM252300 25010KT P6SM BKN050
     FM260900 29011G18KT P6SM SCT050=



000
FTUS41 KOKX 251100
TAFEWR
TAF
KEWR 251134Z 2512/2618 27006KT P6SM SKC
     FM251400 27010KT P6SM FEW050
     FM251800 25012G22KT P6SM SCT050
     FM252300 25012KT P6SM BKN050
     FM260900 28012G20KT P6SM SCT050
     FM261500 28020G30KT P6SM SCT050=



000
FTUS41 KOKX 251100
TAFGON
TAF
KGON 251134Z 2512/2612 VRB03KT P6SM FEW250
     FM251400 28005KT P6SM SKC
     FM251700 25011G20KT P6SM FEW045
     FM252300 24010KT P6SM SCT045
     FM260700 28010KT P6SM SCT045=



000
FTUS41 KOKX 251100
TAFJFK
TAF
KJFK 251134Z 2512/2618 31008KT P6SM SKC
     FM251400 29011KT P6SM FEW050
     FM251800 25013G21KT P6SM SCT050
     FM252300 26015KT P6SM BKN050
     FM260900 29015G21KT P6SM SCT050
     FM261500 30019G28KT P6SM SCT050=



000
FTUS41 KOKX 251100
TAFTEB
TAF
KTEB 251134Z 2512/2612 VRB03KT P6SM SKC
     FM251400 28008KT P6SM FEW050
     FM251800 26010G17KT P6SM SCT050
     FM252300 26010KT P6SM BKN050
     FM260900 30010G16KT P6SM SCT050=



000
FTUS41 KOKX 251100
TAFBDR
TAF
KBDR 251134Z 2512/2612 VRB03KT P6SM FEW250
     FM251500 28009KT P6SM SKC
     FM251800 25012G18KT P6SM SCT050
     FM252300 25010KT P6SM BKN050
     FM260900 29011G18KT P6SM SCT050=



000
FTUS41 KOKX 251100
TAFISP
TAF
KISP 251134Z 2512/2612 VRB04KT P6SM FEW250
     FM251400 28010KT P6SM SKC
     FM251800 25012G19KT P6SM FEW050
     FM260000 26012KT P6SM SCT050
     FM260900 29012G19KT P6SM SCT050=



000
FTUS41 KOKX 251100
TAFLGA
TAF
KLGA 251134Z 2512/2612 30009KT P6SM SKC
     FM251400 29011KT P6SM FEW050
     FM251800 25012G21KT P6SM SCT050
     FM252300 26014KT P6SM BKN050
     FM260900 29014G22KT P6SM SCT050=



000
FTUS41 KOKX 251100
TAFSWF
TAF
KSWF 251134Z 2512/2618 30005KT P6SM FEW050
     FM251500 29009KT P6SM FEW050
     FM251700 27010G17KT P6SM SCT050
     FM252200 27009KT P6SM BKN050
     FM261200 29012G19KT P6SM SCT050
     FM261600 30020G30KT P6SM SCT050
      AMD NOT SKED=



000
FTUS41 KOKX 251100
TAFGON
TAF
KGON 251134Z 2512/2612 VRB03KT P6SM FEW250
     FM251400 28005KT P6SM SKC
     FM251700 25011G20KT P6SM FEW045
     FM252300 24010KT P6SM SCT045
     FM260700 28010KT P6SM SCT045=



000
FTUS41 KOKX 251100
TAFEWR
TAF
KEWR 251134Z 2512/2618 27006KT P6SM SKC
     FM251400 27010KT P6SM FEW050
     FM251800 25012G22KT P6SM SCT050
     FM252300 25012KT P6SM BKN050
     FM260900 28012G20KT P6SM SCT050
     FM261500 28020G30KT P6SM SCT050=



000
FTUS41 KOKX 251100
TAFTEB
TAF
KTEB 251134Z 2512/2612 VRB03KT P6SM SKC
     FM251400 28008KT P6SM FEW050
     FM251800 26010G17KT P6SM SCT050
     FM252300 26010KT P6SM BKN050
     FM260900 30010G16KT P6SM SCT050=



000
FTUS41 KOKX 251100
TAFJFK
TAF
KJFK 251134Z 2512/2618 31008KT P6SM SKC
     FM251400 29011KT P6SM FEW050
     FM251800 25013G21KT P6SM SCT050
     FM252300 26015KT P6SM BKN050
     FM260900 29015G21KT P6SM SCT050
     FM261500 30019G28KT P6SM SCT050=



000
FTUS41 KOKX 250800 AAA
TAFBDR
TAF AMD
KBDR 250837Z 2509/2606 31007KT P6SM SCT250
     FM251500 28009KT P6SM SKC
     FM251800 25012G18KT P6SM SCT050
     FM252300 25010KT P6SM BKN050=



000
FTUS41 KOKX 250800 AAA
TAFLGA
TAF AMD
KLGA 250837Z 2509/2606 32010KT P6SM SCT250
     FM251500 28012KT P6SM SKC
     FM251800 25014G20KT P6SM SCT050
     FM252300 26015KT P6SM BKN050=



000
FTUS41 KOKX 250800 AAA
TAFTEB
TAF AMD
KTEB 250837Z 2509/2606 32005KT P6SM FEW150 SCT250
     FM251400 29006KT P6SM SKC
     FM251800 26010G17KT P6SM SCT050
     FM252300 25010KT P6SM BKN050=



000
FTUS41 KOKX 250800 AAA
TAFISP
TAF AMD
KISP 250837Z 2509/2606 31005KT P6SM SCT250
     FM251500 28010KT P6SM SKC
     FM251800 25012G19KT P6SM FEW050
     FM260000 26012KT P6SM SCT050=



000
FTUS41 KOKX 250800 AAA
TAFSWF
TAF AMD
KSWF 250837Z 2509/2612 30005KT P6SM SCT250
     FM251500 29009KT P6SM SKC
     FM251700 27010G17KT P6SM SCT050
     FM252200 27009KT P6SM BKN050
     FM260900 29014KT P6SM SCT050
      AMD NOT SKED=



000
FTUS41 KOKX 250800 AAA
TAFJFK
TAF AMD
KJFK 250837Z 2509/2612 31007KT P6SM SCT250
     FM251300 28012KT P6SM SKC
     FM251800 25014G20KT P6SM SCT050
     FM252300 26015KT P6SM BKN050
     FM260900 29015KT P6SM SCT050=



000
FTUS41 KOKX 250800 AAA
TAFGON
TAF AMD
KGON 250837Z 2509/2606 33005KT P6SM SCT250
     FM251700 25011G20KT P6SM FEW045
     FM252300 24011KT P6SM SCT045=



000
FTUS41 KOKX 250800 AAA
TAFEWR
TAF AMD
KEWR 250837Z 2509/2612 31007KT P6SM SCT250
     FM251400 27010KT P6SM SKC
     FM251800 25012G20KT P6SM SCT050
     FM252300 25012KT P6SM BKN050
     FM260900 29012KT P6SM SCT050=



000
FTUS41 KOKX 250500
TAFLGA
TAF
KLGA 250539Z 2506/2606 32007KT P6SM SCT250
     FM251500 28009KT P6SM SKC
     FM251800 25012G20KT P6SM SCT050
     FM252300 26015KT P6SM BKN050=



000
FTUS41 KOKX 250500
TAFISP
TAF
KISP 250539Z 2506/2606 32005KT P6SM SCT250
     FM251500 29010KT P6SM SKC
     FM251800 26012G19KT P6SM FEW050
     FM260000 26012KT P6SM SCT050=



000
FTUS41 KOKX 250500
TAFTEB
TAF
KTEB 250539Z 2506/2606 32005KT P6SM FEW150 SCT250
     FM251400 29006KT P6SM SKC
     FM251800 27010G17KT P6SM SCT050
     FM252300 25010KT P6SM BKN050=



000
FTUS41 KOKX 250500
TAFBDR
TAF
KBDR 250539Z 2506/2606 31009G17KT P6SM SCT250
     FM250700 31007KT P6SM SCT250
     FM251500 28009KT P6SM SKC
     FM251800 26012G18KT P6SM SCT050
     FM252300 25010KT P6SM BKN050=



000
FTUS41 KOKX 250500
TAFGON
TAF
KGON 250539Z 2506/2606 30007KT P6SM SCT035
     FM250700 33005KT P6SM SCT250
     FM251700 25011G20KT P6SM FEW045
     FM252300 25011KT P6SM SCT045=



000
FTUS41 KOKX 250500
TAFSWF
TAF
KSWF 250539Z 2506/2612 30005KT P6SM SCT250
     FM251500 29009KT P6SM SKC
     FM251700 27010G17KT P6SM SCT050
     FM252200 27010KT P6SM BKN050
      AMD NOT SKED=



000
FTUS41 KOKX 250500
TAFJFK
TAF
KJFK 250539Z 2506/2612 31007KT P6SM SCT250
     FM251300 29011KT P6SM SKC
     FM251800 25013G20KT P6SM SCT050
     FM252300 26015KT P6SM BKN050=



000
FTUS41 KOKX 250500
TAFEWR
TAF
KEWR 250539Z 2506/2612 30007KT P6SM SCT250
     FM251400 27010KT P6SM SKC
     FM251800 25012G20KT P6SM SCT050
     FM252300 25012KT P6SM BKN050=



000
FTUS41 KOKX 250400 AAB
TAFLGA
TAF AMD
KLGA 250401Z 2504/2524 32007KT P6SM SCT250
     FM251500 28009KT P6SM SKC
     FM251800 25011KT P6SM SCT050=



000
FTUS41 KOKX 250400 AAB
TAFTEB
TAF AMD
KTEB 250401Z 2504/2524 32007KT P6SM SCT250
     FM250430 32005KT P6SM FEW150 SCT250
     FM251400 30006KT P6SM SKC
     FM251700 26010KT P6SM SKC
     FM252100 25008KT P6SM SCT050=



000
FTUS41 KOKX 250400 AAB
TAFEWR
TAF AMD
KEWR 250401Z 2504/2606 32009KT P6SM FEW150 SCT250
     FM250600 30007KT P6SM SCT250
     FM251600 27010KT P6SM SKC
     FM252000 25011KT P6SM SCT050
     FM260400 25010KT P6SM BKN050=



000
FTUS41 KOKX 250400 AAB
TAFJFK
TAF AMD
KJFK 250401Z 2504/2606 31007KT P6SM SCT250
     FM251500 29011KT P6SM SKC
     FM251800 25013KT P6SM SCT050
     FM260400 26014KT P6SM BKN050=



000
FTUS41 KOKX 250400 AAB
TAFEWR
TAF AMD
KEWR 250401Z 2504/2606 32009KT P6SM FEW150 SCT250
     FM250600 30007KT P6SM SCT250
     FM251600 27010KT P6SM SKC
     FM252000 25011KT P6SM SCT050
     FM260400 25010KT P6SM BKN050=



000
FTUS41 KOKX 250400 AAB
TAFTEB
TAF AMD
KTEB 250401Z 2504/2524 32007KT P6SM SCT250
     FM250430 32005KT P6SM FEW150 SCT250
     FM251400 30006KT P6SM SKC
     FM251700 26010KT P6SM SKC
     FM252100 25008KT P6SM SCT050=



000
FTUS41 KOKX 250400 AAB
TAFJFK
TAF AMD
KJFK 250401Z 2504/2606 31007KT P6SM SCT250
     FM251500 29011KT P6SM SKC
     FM251800 25013KT P6SM SCT050
     FM260400 26014KT P6SM BKN050=



000
FTUS41 KOKX 250400 AAB
TAFLGA
TAF AMD
KLGA 250401Z 2504/2524 32007KT P6SM SCT250
     FM251500 28009KT P6SM SKC
     FM251800 25011KT P6SM SCT050=



000
FTUS41 KOKX 250300 AAB
TAFGON
TAF AMD
KGON 250309Z 2503/2524 30007KT P6SM BKN035
     FM250600 32007KT P6SM SCT035
     FM250700 33005KT P6SM SKC
     FM251500 30009KT P6SM SKC
     FM251900 25010KT P6SM FEW045=



000
FTUS41 KOKX 250200 AAA
TAFEWR
TAF AMD
KEWR 250239Z 2503/2606 32010G18KT P6SM FEW120 SCT250
     FM250430 30007KT P6SM SCT250
     FM251600 27010KT P6SM SKC
     FM252000 25011KT P6SM SCT050
     FM260400 25010KT P6SM BKN050=



000
FTUS41 KOKX 250200 AAA
TAFLGA
TAF AMD
KLGA 250239Z 2503/2524 32010G18KT P6SM FEW150 SCT250
     FM250500 31007KT P6SM SCT250
     FM251500 28009KT P6SM SKC
     FM251800 25011KT P6SM SCT050=



000
FTUS41 KOKX 250200 AAA
TAFJFK
TAF AMD
KJFK 250239Z 2503/2606 VRB03KT P6SM FEW050 SCT250
     FM250330 32010G18KT P6SM FEW150 SCT250
     FM250530 31007KT P6SM SKC
     FM251500 29011KT P6SM SKC
     FM251800 25013KT P6SM SCT050
     FM260400 26014KT P6SM BKN050=



000
FTUS41 KOKX 250200 AAA
TAFBDR
TAF AMD
KBDR 250239Z 2503/2524 30004KT P6SM SCT250
     FM251500 28009KT P6SM SKC
     FM252100 25008KT P6SM SCT045=



000
FTUS41 KOKX 250200 AAA
TAFISP
TAF AMD
KISP 250239Z 2503/2524 31005KT P6SM FEW045 SCT250
     FM250600 32005KT P6SM SCT250
     FM251500 30010KT P6SM SKC
     FM251900 25010KT P6SM SKC
     FM252200 25007KT P6SM SCT045=



000
FTUS41 KOKX 250200 AAA
TAFGON
TAF AMD
KGON 250239Z 2503/2524 33007KT P6SM SCT035 SCT250
      TEMPO 2503/2504 BKN035
     FM250700 33005KT P6SM SKC
     FM251500 30009KT P6SM SKC
     FM251900 25010KT P6SM FEW045=



000
FTUS41 KOKX 250200 AAA
TAFTEB
TAF AMD
KTEB 250239Z 2503/2524 32007G15KT P6SM FEW150 SCT250
     FM250430 32005KT P6SM FEW150 SCT250
     FM251400 30006KT P6SM SKC
     FM251700 26010KT P6SM SKC
     FM252100 25008KT P6SM SCT050=



000
FTUS41 KOKX 242300 RRA
TAFSWF
TAF
KSWF 242350Z 2500/2606 VRB03KT P6SM SCT250
     FM251300 29005KT P6SM SKC
     FM251700 29010KT P6SM SCT050
     FM252100 27007KT P6SM SCT050 SCT090
     FM252300 26006KT P6SM BKN050
     FM260200 29008KT P6SM SCT050
      AMD NOT SKED=



000
FTUS41 KOKX 242300 RRA
TAFGON
TAF
KGON 242350Z 2500/2524 33007KT P6SM OVC035
     FM250200 33007KT P6SM BKN040
     FM250500 33007KT P6SM SCT045
     FM250700 33005KT P6SM SKC
     FM251500 30009KT P6SM SKC
     FM251900 25010KT P6SM FEW045=



000
FTUS41 KOKX 242300 RRA
TAFBDR
TAF
KBDR 242350Z 2500/2524 34005KT P6SM BKN045
     FM250300 32005KT P6SM SCT045
     FM250600 32004KT P6SM SKC
     FM251500 28009KT P6SM SKC
     FM252100 25008KT P6SM SCT045=



000
FTUS41 KOKX 242300 RRA
TAFTEB
TAF
KTEB 242343Z 2500/2524 VRB03KT P6SM FEW050 SCT120 SCT250
     FM250300 VRB03KT P6SM SKC
     FM251400 30006KT P6SM SKC
     FM251700 26010KT P6SM SKC
     FM252100 25008KT P6SM SCT050=



000
FTUS41 KOKX 242300 RRA
TAFISP
TAF
KISP 242343Z 2500/2524 33004KT P6SM BKN045
     FM250300 32005KT P6SM SCT045
     FM250600 32005KT P6SM SCT250
     FM251500 30010KT P6SM SKC
     FM251900 25010KT P6SM SKC
     FM252200 25007KT P6SM SCT045=



000
FTUS41 KOKX 242300 RRA
TAFLGA
TAF
KLGA 242343Z 2500/2524 VRB03KT P6SM FEW050 SCT120 SCT250
     FM250300 32007KT P6SM SKC
     FM251500 28009KT P6SM SKC
     FM251800 25011KT P6SM SCT050=



000
FTUS41 KOKX 242300 RRA
TAFJFK
TAF
KJFK 242343Z 2500/2606 VRB03KT P6SM FEW050 SCT120 SCT250
     FM250300 32007KT P6SM SKC
     FM251500 29011KT P6SM SKC
     FM251800 25013KT P6SM SCT050
     FM260400 26014KT P6SM BKN050=



000
FTUS41 KOKX 242300 RRA
TAFEWR
TAF
KEWR 242343Z 2500/2606 VRB03KT P6SM FEW050 SCT120 SCT250
     FM250300 31007KT P6SM SKC
     FM251600 27010KT P6SM SKC
     FM252000 25011KT P6SM SCT050
     FM260400 25010KT P6SM BKN050=



000
FTUS41 KOKX 242000 AAB
TAFJFK
TAF AMD
KJFK 242058Z 2421/2524 01009KT P6SM BKN050
     FM242200 36009KT P6SM SCT050
     FM250600 32007KT P6SM SCT250
     FM251500 29011KT P6SM FEW040 SCT250=



000
FTUS41 KOKX 242000 AAB
TAFEWR
TAF AMD
KEWR 242058Z 2421/2524 33011G16KT P6SM SCT050
     FM242300 33010KT P6SM SCT050
     FM250400 31007KT P6SM SCT250
     FM251500 29008KT P6SM FEW040 SCT250=



000
FTUS41 KOKX 242000 AAB
TAFLGA
TAF AMD
KLGA 242058Z 2421/2518 05008KT P6SM BKN050
     FM242200 04007KT P6SM SCT050
     FM250100 35007KT P6SM FEW050
     FM250400 33006KT P6SM SCT250
     FM251500 29011KT P6SM FEW040 SCT250=



000
FTUS41 KOKX 242000 AAB
TAFISP
TAF AMD
KISP 242058Z 2421/2518 33009KT P6SM BKN035
     FM242200 32007KT P6SM FEW035 BKN045
     FM250200 32006KT P6SM SCT050
     FM250600 32006KT P6SM SCT250
     FM251500 30010KT P6SM FEW040 SCT250=



000
FTUS41 KOKX 242000 AAB
TAFTEB
TAF AMD
KTEB 242058Z 2421/2518 02006KT P6SM SCT050
     FM250100 33005KT P6SM FEW050
     FM250500 VRB03KT P6SM SCT250
     FM251500 29011KT P6SM FEW040 SCT250=



000
FTUS41 KOKX 241900 AAA
TAFISP
TAF AMD
KISP 241950Z 2420/2518 32009G17KT P6SM SCT025 BKN040 OVC070
      TEMPO 2420/2421 P6SM BKN025 BKN040 OVC070
     FM242200 32010KT P6SM SCT045
     FM250000 32008KT P6SM SCT250
     FM251500 30010KT P6SM FEW040 SCT250=



000
FTUS41 KOKX 241900 AAA
TAFISP
TAF AMD
KISP 241950Z 2420/2518 32009G17KT P6SM SCT025 BKN040 OVC070
      TEMPO 2420/2421 P6SM BKN025 BKN040 OVC070
     FM242200 32010KT P6SM SCT045
     FM250000 32008KT P6SM SCT250
     FM251500 30010KT P6SM FEW040 SCT250=



000
FTUS41 KOKX 241900 AAA
TAFSWF
TAF AMD
KSWF 241950Z 2420/2524 33014KT P6SM BKN030
     FM242200 32010KT P6SM SCT040 SCT150
     FM250000 31006KT P6SM SCT250
     FM251400 31008KT P6SM FEW040 SCT250
      AMD NOT SKED=



000
FTUS41 KOKX 241900 AAA
TAFEWR
TAF AMD
KEWR 241950Z 2420/2524 32015G21KT P6SM SCT025 SCT040 BKN150
     FM242200 32012KT P6SM SCT040
     FM250200 32008KT P6SM SCT250
     FM251500 29008KT P6SM FEW040 SCT250=



000
FTUS41 KOKX 241900 AAA
TAFLGA
TAF AMD
KLGA 241950Z 2420/2518 32012G20KT P6SM SCT025 BKN040 BKN150
     FM242200 32013KT P6SM SCT040
     FM250400 31009KT P6SM SCT250
     FM251500 29011KT P6SM FEW040 SCT250=



000
FTUS41 KOKX 241900 AAA
TAFBDR
TAF AMD
KBDR 241950Z 2420/2518 32013G21KT P6SM SCT030 BKN050
      TEMPO 2420/2421 P6SM BKN025 BKN040 OVC070
     FM242200 32010KT P6SM SCT050
     FM250000 32007KT P6SM SCT250
     FM251500 30008KT P6SM FEW040 SCT250=



000
FTUS41 KOKX 241900 AAA
TAFTEB
TAF AMD
KTEB 241950Z 2420/2518 32014KT P6SM SCT025 BKN040
     FM242200 32009KT P6SM SCT040
     FM250300 31005KT P6SM SCT250
     FM251500 29011KT P6SM FEW040 SCT250=



000
FTUS41 KOKX 241900 AAA
TAFJFK
TAF AMD
KJFK 241950Z 2420/2524 33014G18KT P6SM SCT025 BKN040 BKN150
     FM242200 32013KT P6SM SCT040
     FM250400 32009KT P6SM SCT250
     FM251500 29011KT P6SM FEW040 SCT250=



000
FTUS41 KOKX 241900 AAA
TAFGON
TAF AMD
KGON 241950Z 2420/2518 33010G18KT P6SM BKN030 OVC100
     FM242200 33010KT P6SM BKN045
     FM250000 33007KT P6SM SCT050 BKN120
     FM251500 29008KT P6SM FEW040 SCT250=



000
FTUS41 KOKX 241900 AAA
TAFJFK
TAF AMD
KJFK 241950Z 2420/2524 33014G18KT P6SM SCT025 BKN040 BKN150
     FM242200 32013KT P6SM SCT040
     FM250400 32009KT P6SM SCT250
     FM251500 29011KT P6SM FEW040 SCT250=



000
FTUS41 KOKX 241900 AAA
TAFSWF
TAF AMD
KSWF 241950Z 2420/2524 33014KT P6SM BKN030
     FM242200 32010KT P6SM SCT040 SCT150
     FM250000 31006KT P6SM SCT250
     FM251400 31008KT P6SM FEW040 SCT250
      AMD NOT SKED=



000
FTUS41 KOKX 241900 AAA
TAFBDR
TAF AMD
KBDR 241950Z 2420/2518 32013G21KT P6SM SCT030 BKN050
      TEMPO 2420/2421 P6SM BKN025 BKN040 OVC070
     FM242200 32010KT P6SM SCT050
     FM250000 32007KT P6SM SCT250
     FM251500 30008KT P6SM FEW040 SCT250=



000
FTUS41 KOKX 241900 AAA
TAFTEB
TAF AMD
KTEB 241950Z 2420/2518 32014KT P6SM SCT025 BKN040
     FM242200 32009KT P6SM SCT040
     FM250300 31005KT P6SM SCT250
     FM251500 29011KT P6SM FEW040 SCT250=



000
FTUS41 KOKX 241900 AAA
TAFLGA
TAF AMD
KLGA 241950Z 2420/2518 32012G20KT P6SM SCT025 BKN040 BKN150
     FM242200 32013KT P6SM SCT040
     FM250400 31009KT P6SM SCT250
     FM251500 29011KT P6SM FEW040 SCT250=



000
FTUS41 KOKX 241900 AAA
TAFEWR
TAF AMD
KEWR 241950Z 2420/2524 32015G21KT P6SM SCT025 SCT040 BKN150
     FM242200 32012KT P6SM SCT040
     FM250200 32008KT P6SM SCT250
     FM251500 29008KT P6SM FEW040 SCT250=



000
FTUS41 KOKX 241900 AAA
TAFGON
TAF AMD
KGON 241950Z 2420/2518 33010G18KT P6SM BKN030 OVC100
     FM242200 33010KT P6SM BKN045
     FM250000 33007KT P6SM SCT050 BKN120
     FM251500 29008KT P6SM FEW040 SCT250=



000
FTUS41 KOKX 241700
TAFEWR
TAF
KEWR 241729Z 2418/2524 32015G21KT P6SM SCT025 SCT040 BKN150
     FM242200 32012KT P6SM SCT040
     FM250200 32008KT P6SM SCT250
     FM251500 29008KT P6SM FEW040 SCT250=



000
FTUS41 KOKX 241700
TAFSWF
TAF
KSWF 241729Z 2418/2524 33014G22KT P6SM SCT025 BKN035
     FM242200 32010KT P6SM SCT040 SCT150
     FM250000 31006KT P6SM SCT250
     FM251400 31008KT P6SM FEW040 SCT250
      AMD NOT SKED=



000
FTUS41 KOKX 241700
TAFISP
TAF
KISP 241729Z 2418/2518 32012G25KT P6SM SCT025 BKN040 OVC070
      TEMPO 2418/2421 P6SM BKN025 BKN040 OVC070
     FM242200 32010KT P6SM SCT045
     FM250000 32008KT P6SM SCT250
     FM251500 30010KT P6SM FEW040 SCT250=



000
FTUS41 KOKX 241700
TAFBDR
TAF
KBDR 241729Z 2418/2518 32013G21KT P6SM SCT030 BKN050
      TEMPO 2418/2421 P6SM BKN025 BKN040 OVC070
     FM242200 32010KT P6SM SCT050
     FM250000 32007KT P6SM SCT250
     FM251500 30008KT P6SM FEW040 SCT250=



000
FTUS41 KOKX 241700
TAFTEB
TAF
KTEB 241729Z 2418/2518 32014G21KT P6SM SCT025 BKN040
     FM242200 32009KT P6SM SCT040
     FM250300 31005KT P6SM SCT250
     FM251500 29011KT P6SM FEW040 SCT250=



000
FTUS41 KOKX 241700
TAFJFK
TAF
KJFK 241729Z 2418/2524 33014G21KT P6SM SCT025 BKN040 BKN150
     FM242200 32013KT P6SM SCT040
     FM250400 32009KT P6SM SCT250
     FM251500 29011KT P6SM FEW040 SCT250=



000
FTUS41 KOKX 241700
TAFGON
TAF
KGON 241729Z 2418/2518 33010G22KT P6SM BKN020 OVC100
     FM242200 33010KT P6SM BKN045
     FM250000 33007KT P6SM SCT050 BKN120
     FM251500 29008KT P6SM FEW040 SCT250=



000
FTUS41 KOKX 241700
TAFLGA
TAF
KLGA 241729Z 2418/2518 32012G22KT P6SM SCT025 BKN040 BKN150
     FM242200 32013KT P6SM SCT040
     FM250400 31009KT P6SM SCT250
     FM251500 29011KT P6SM FEW040 SCT250=



000
FTUS41 KOKX 241500 AAB
TAFGON
TAF AMD
KGON 241510Z 2415/2512 33010G22KT P6SM BKN020 OVC100
     FM242200 33010KT P6SM BKN045
     FM250000 33007KT P6SM SCT050 BKN120=



000
FTUS41 KOKX 241500 AAB
TAFISP
TAF AMD
KISP 241508Z 2415/2512 32012G22KT P6SM SCT025 BKN040 OVC070
      TEMPO 2415/2416 5SM -SHRA BKN010 BKN025 OVC070
     FM242200 32010KT P6SM SCT045
     FM250000 32008KT P6SM SCT250=



000
FTUS41 KOKX 241400 AAB
TAFTEB
TAF AMD
KTEB 241408Z 2414/2512 34011G17KT P6SM SCT025 BKN040 BKN150
     FM241500 32014G22KT P6SM SCT025 BKN040
     FM242200 32009KT P6SM SCT040
     FM250300 31005KT P6SM SCT250=



000
FTUS41 KOKX 241400 AAA
TAFBDR
TAF AMD
KBDR 241408Z 2414/2512 32014KT P6SM SCT025 SCT029 OVC045
      TEMPO 2414/2415 BKN025
     FM241500 32013G21KT P6SM SCT030 BKN050
     FM242200 32010KT P6SM SCT050
     FM250000 32007KT P6SM SCT250=



000
FTUS41 KOKX 241400 AAA
TAFGON
TAF AMD
KGON 241408Z 2414/2512 33010G17KT P6SM SCT030 OVC100
     FM241500 33014G22KT P6SM SCT025 BKN045
     FM242200 33010KT P6SM BKN045
     FM250000 33007KT P6SM SCT050 BKN120=



000
FTUS41 KOKX 241400 AAA
TAFSWF
TAF AMD
KSWF 241408Z 2414/2518 31005KT P6SM BKN035
      TEMPO 2414/2415 BKN025
     FM241500 33014G22KT P6SM SCT025 BKN035
     FM242200 32010KT P6SM SCT040 SCT150
     FM250000 31006KT P6SM SCT250
     FM251400 28008KT P6SM FEW040 SCT250
      AMD NOT SKED=



000
FTUS41 KOKX 241400 AAA
TAFISP
TAF AMD
KISP 241408Z 2414/2512 32010KT P6SM SCT025 OVC070
      TEMPO 2414/2415 5SM -SHRA BKN020
     FM241500 33015G23KT P6SM SCT025 BKN040
     FM242200 32010KT P6SM SCT045
     FM250000 32008KT P6SM SCT250=



000
FTUS41 KOKX 241400 AAA
TAFISP
TAF AMD
KISP 241408Z 2414/2512 32010KT P6SM SCT025 OVC070
      TEMPO 2414/2415 5SM -SHRA BKN020
     FM241500 33015G23KT P6SM SCT025 BKN040
     FM242200 32010KT P6SM SCT045
     FM250000 32008KT P6SM SCT250=



000
FTUS41 KOKX 241400 AAA
TAFBDR
TAF AMD
KBDR 241408Z 2414/2512 32014KT P6SM SCT025 SCT029 OVC045
      TEMPO 2414/2415 BKN025
     FM241500 32013G21KT P6SM SCT030 BKN050
     FM242200 32010KT P6SM SCT050
     FM250000 32007KT P6SM SCT250=



000
FTUS41 KOKX 241400 AAA
TAFGON
TAF AMD
KGON 241408Z 2414/2512 33010G17KT P6SM SCT030 OVC100
     FM241500 33014G22KT P6SM SCT025 BKN045
     FM242200 33010KT P6SM BKN045
     FM250000 33007KT P6SM SCT050 BKN120=



000
FTUS41 KOKX 241400 AAA
TAFJFK
TAF AMD
KJFK 241408Z 2414/2518 33014KT P6SM SCT025 BKN100 BKN250
     FM242200 32013KT P6SM SCT040
     FM250400 31009KT P6SM SCT250
     FM251400 29011KT P6SM FEW040 SCT250=



000
FTUS41 KOKX 241400 AAA
TAFJFK
TAF AMD
KJFK 241408Z 2414/2518 33014KT P6SM SCT025 BKN100 BKN250
     FM242200 32013KT P6SM SCT040
     FM250400 31009KT P6SM SCT250
     FM251400 29011KT P6SM FEW040 SCT250=



000
FTUS41 KOKX 241400 AAA
TAFLGA
TAF AMD
KLGA 241408Z 2414/2512 32012KT P6SM SCT025 BKN100 BKN150
     FM242200 32013KT P6SM SCT040
     FM250400 31009KT P6SM SCT250=



000
FTUS41 KOKX 241400 AAA
TAFEWR
TAF AMD
KEWR 241408Z 2414/2518 32015G24KT P6SM SCT025 BKN040 BKN150
     FM242200 32012KT P6SM SCT040
     FM250200 31008KT P6SM SCT250
     FM251200 29008KT P6SM FEW040 SCT250=



000
FTUS41 KOKX 241400 AAA
TAFSWF
TAF AMD
KSWF 241408Z 2414/2518 31005KT P6SM BKN035
      TEMPO 2414/2415 BKN025
     FM241500 33014G22KT P6SM SCT025 BKN035
     FM242200 32010KT P6SM SCT040 SCT150
     FM250000 31006KT P6SM SCT250
     FM251400 28008KT P6SM FEW040 SCT250
      AMD NOT SKED=



000
FTUS41 KOKX 241400 AAB
TAFTEB
TAF AMD
KTEB 241408Z 2414/2512 34011G17KT P6SM SCT025 BKN040 BKN150
     FM241500 32014G22KT P6SM SCT025 BKN040
     FM242200 32009KT P6SM SCT040
     FM250300 31005KT P6SM SCT250=



000
FTUS41 KOKX 241400 AAA
TAFEWR
TAF AMD
KEWR 241408Z 2414/2518 32015G24KT P6SM SCT025 BKN040 BKN150
     FM242200 32012KT P6SM SCT040
     FM250200 31008KT P6SM SCT250
     FM251200 29008KT P6SM FEW040 SCT250=



000
FTUS41 KOKX 241400 AAA
TAFLGA
TAF AMD
KLGA 241408Z 2414/2512 32012KT P6SM SCT025 BKN100 BKN150
     FM242200 32013KT P6SM SCT040
     FM250400 31009KT P6SM SCT250=



000
FTUS41 KOKX 241200 AAA
TAFTEB
TAF AMD
KTEB 241209Z 2412/2512 32008KT P6SM SCT025 BKN070
      TEMPO 2412/2414 BKN025
     FM241500 32014G22KT P6SM SCT025 BKN040
     FM242200 32009KT P6SM SCT040
     FM250300 31005KT P6SM SCT250=



000
FTUS41 KOKX 241100
TAFGON
TAF
KGON 241120Z 2412/2512 34011KT P6SM -RA SCT015 BKN025
     FM241500 33014G22KT P6SM SCT025 BKN045
     FM242200 33010KT P6SM BKN045
     FM250000 33007KT P6SM SCT050 BKN120=



000
FTUS41 KOKX 241100
TAFISP
TAF
KISP 241120Z 2412/2512 33014G21KT 6SM -RA SCT025 BKN040
      TEMPO 2412/2415 BKN025
     FM241500 33015G23KT P6SM SCT025 BKN040
     FM242200 32010KT P6SM SCT045
     FM250000 32008KT P6SM SCT250=



000
FTUS41 KOKX 241100
TAFSWF
TAF
KSWF 241120Z 2412/2518 32009KT P6SM VCSH SCT020 OVC035
      TEMPO 2412/2415 BKN025
     FM241500 33014G22KT P6SM SCT025 BKN035
     FM242200 32010KT P6SM SCT040 SCT150
     FM250000 31006KT P6SM SCT250
     FM251400 28008KT P6SM FEW040 SCT250
      AMD NOT SKED=



000
FTUS41 KOKX 241100
TAFEWR
TAF
KEWR 241120Z 2412/2518 31011KT P6SM SCT025 BKN070
      TEMPO 2412/2414 BKN025
     FM241400 32016G24KT P6SM SCT025 BKN040
     FM242200 32012KT P6SM SCT040
     FM250200 31008KT P6SM SCT250
     FM251200 29008KT P6SM FEW040 SCT250=



000
FTUS41 KOKX 241100
TAFTEB
TAF
KTEB 241120Z 2412/2512 32008KT P6SM SCT025 BKN070
     FM241500 32014G22KT P6SM SCT025 BKN040
     FM242200 32009KT P6SM SCT040
     FM250300 31005KT P6SM SCT250=



000
FTUS41 KOKX 241100
TAFBDR
TAF
KBDR 241120Z 2412/2512 33010KT 6SM -RA SCT025 BKN045
      TEMPO 2412/2415 BKN025
     FM241500 32013G21KT P6SM SCT030 BKN050
     FM242200 32010KT P6SM SCT050
     FM250000 32007KT P6SM SCT250=



000
FTUS41 KOKX 241100
TAFJFK
TAF
KJFK 241120Z 2412/2518 32013KT P6SM SCT025 BKN070
     FM241400 32016G24KT P6SM SCT025 BKN040
     FM242200 32013KT P6SM SCT040
     FM250400 31009KT P6SM SCT250
     FM251400 29011KT P6SM FEW040 SCT250=



000
FTUS41 KOKX 241100
TAFLGA
TAF
KLGA 241120Z 2412/2512 31013KT P6SM SCT025 BKN070
     FM241400 32016G24KT P6SM SCT025 BKN040
     FM242200 32013KT P6SM SCT040
     FM250400 31009KT P6SM SCT250=



000
FTUS41 KOKX 240800 AAB
TAFSWF
TAF AMD
KSWF 240831Z 2409/2512 32005KT P6SM VCSH SCT020 OVC030
      TEMPO 2411/2414 6SM -SHRA
     FM241400 34010KT P6SM FEW020 BKN035
     FM241600 34014G22KT P6SM SCT020 BKN035
     FM242200 33010KT P6SM SCT040 SCT150
     FM250000 31006KT P6SM SCT250
      AMD NOT SKED=



000
FTUS41 KOKX 240800 AAA
TAFISP
TAF AMD
KISP 240830Z 2409/2506 33012KT P6SM OVC040
      TEMPO 2412/2415 6SM -SHRA BKN035
     FM241500 33014G21KT P6SM SCT030 BKN045
     FM242200 32010KT P6SM SCT045
     FM250000 32008KT P6SM SCT250=



000
FTUS41 KOKX 240800 AAA
TAFBDR
TAF AMD
KBDR 240830Z 2409/2506 33009KT P6SM SCT030 BKN045
      TEMPO 2411/2414 -SHRA BKN035
     FM241400 32013G21KT P6SM SCT030 BKN050
     FM242200 32010KT P6SM SCT050
     FM250000 32007KT P6SM SCT250=



000
FTUS41 KOKX 240800 AAA
TAFGON
TAF AMD
KGON 240830Z 2409/2506 34011KT P6SM VCSH OVC020
      TEMPO 2412/2415 -SHRA SCT015
     FM241500 33014G22KT P6SM SCT020 BKN060
     FM242200 33010KT P6SM BKN045
     FM250000 33007KT P6SM SCT250=



000
FTUS41 KOKX 240800 AAB
TAFLGA
TAF AMD
KLGA 240830Z 2409/2506 32013KT P6SM SCT035 BKN060
      TEMPO 2412/2415 6SM -SHRA BKN040
     FM241500 32016G24KT P6SM SCT030 BKN050
     FM242200 32013KT P6SM SCT050
     FM250400 31009KT P6SM SCT250=



000
FTUS41 KOKX 240800 AAA
TAFEWR
TAF AMD
KEWR 240830Z 2409/2512 31008KT P6SM FEW040 BKN060
     FM241200 31011KT P6SM FEW020 BKN050
      TEMPO 2412/2415 6SM -SHRA BKN040
     FM241500 32016G24KT P6SM SCT030 BKN050
     FM242200 32012KT P6SM SCT050
     FM250200 31008KT P6SM SCT250=



000
FTUS41 KOKX 240800 AAA
TAFJFK
TAF AMD
KJFK 240830Z 2409/2512 32013KT P6SM SCT035 BKN070
      TEMPO 2412/2415 6SM -SHRA BKN040
     FM241500 32016G24KT P6SM SCT030 BKN050
     FM242200 32013KT P6SM SCT050
     FM250400 31009KT P6SM SCT250=



000
FTUS41 KOKX 240800 AAA
TAFTEB
TAF AMD
KTEB 240830Z 2409/2506 32008KT P6SM FEW035 BKN050
      TEMPO 2412/2415 6SM -SHRA BKN040
     FM241500 32014G22KT P6SM SCT030 BKN050
     FM242200 32009KT P6SM SCT050
     FM250300 31005KT P6SM SCT250=



000
FTUS41 KOKX 240700 AAA
TAFSWF
TAF AMD
KSWF 240704Z 2407/2512 32005KT P6SM VCSH SCT020 OVC030
      TEMPO 2409/2413 6SM -SHRA
     FM241300 34010KT P6SM FEW020 BKN035
      TEMPO 2413/2414 BKN030
     FM241600 34014G22KT P6SM SCT020 BKN035
     FM242200 33010KT P6SM SCT040 SCT150
     FM250000 31006KT P6SM SCT250
      AMD NOT SKED=



000
FTUS41 KOKX 240700 AAA
TAFLGA
TAF AMD
KLGA 240701Z 2407/2506 33011KT P6SM FEW025 BKN045
      TEMPO 2407/2409 BKN025
     FM240900 33011KT P6SM VCSH FEW030 BKN050
     FM241500 32016G24KT P6SM SCT030 BKN050
     FM242200 32013KT P6SM SCT050
     FM250400 31009KT P6SM SCT250=



000
FTUS41 KOKX 240500
TAFBDR
TAF
KBDR 240536Z 2406/2506 33009KT P6SM VCSH SCT030 BKN045
      TEMPO 2406/2410 -RA BKN030
     FM241400 32013G21KT P6SM SCT025 BKN050
     FM242200 32010KT P6SM SCT050
     FM250000 32007KT P6SM SCT250=



000
FTUS41 KOKX 240500
TAFGON
TAF
KGON 240536Z 2406/2506 34011KT P6SM VCSH BKN020
      TEMPO 2406/2409 -SHRA BKN015
     FM241500 33014G22KT P6SM SCT020 BKN035
     FM242200 33010KT P6SM BKN045
     FM250000 33007KT P6SM SCT250=



000
FTUS41 KOKX 240500
TAFSWF
TAF
KSWF 240536Z 2406/2512 32005KT P6SM VCSH SCT020 OVC030
     FM241200 34010KT P6SM FEW020 BKN035
      TEMPO 2412/2414 BKN030
     FM241600 34014G22KT P6SM SCT020 BKN035
     FM242200 33010KT P6SM SCT040 SCT150
     FM250000 31006KT P6SM SCT250
      AMD NOT SKED=



000
FTUS41 KOKX 240500
TAFISP
TAF
KISP 240536Z 2406/2506 34015G21KT P6SM VCSH SCT025 OVC035
      TEMPO 2406/2408 BKN025
     FM241000 33011KT P6SM SCT025 BKN045
     FM241400 33014G21KT P6SM SCT025 BKN045
     FM242200 32010KT P6SM SCT045
     FM250000 32008KT P6SM SCT250=



000
FTUS41 KOKX 240500
TAFJFK
TAF
KJFK 240536Z 2406/2512 33015KT P6SM FEW020 BKN040
     FM241000 33013KT P6SM VCSH FEW030 BKN050
     FM241500 32016G24KT P6SM SCT030 BKN050
     FM242200 32013KT P6SM SCT050
     FM250400 31009KT P6SM SCT250=



000
FTUS41 KOKX 240500
TAFLGA
TAF
KLGA 240536Z 2406/2506 33013KT P6SM FEW025 BKN045
     FM240900 33011KT P6SM VCSH FEW030 BKN050
     FM241500 32016G24KT P6SM SCT030 BKN050
     FM242200 32013KT P6SM SCT050
     FM250400 31009KT P6SM SCT250=



000
FTUS41 KOKX 240500
TAFTEB
TAF
KTEB 240536Z 2406/2506 33008KT P6SM VCSH FEW030 BKN050
     FM241400 32014G22KT P6SM SCT030 BKN050
     FM242200 32009KT P6SM SCT050
     FM250300 31005KT P6SM SCT250=



000
FTUS41 KOKX 240500
TAFEWR
TAF
KEWR 240536Z 2406/2512 33011KT P6SM FEW025 BKN040
     FM241000 32010KT P6SM VCSH FEW030 BKN050
     FM241400 32016G24KT P6SM SCT030 BKN050
     FM242200 32012KT P6SM SCT050
     FM250200 31008KT P6SM SCT250=



000
FTUS41 KOKX 240300 AAB
TAFBDR
TAF AMD
KBDR 240315Z 2403/2424 33009KT P6SM FEW015 BKN025
      TEMPO 2405/2407 BKN035
     FM240700 33008KT P6SM SCT025 BKN045
     FM241400 32014G21KT P6SM SCT025 BKN050
     FM242200 32011KT P6SM SCT050=



000
FTUS41 KOKX 240300 AAB
TAFBDR
TAF AMD
KBDR 240315Z 2403/2424 33009KT P6SM FEW015 BKN025
      TEMPO 2405/2407 BKN035
     FM240700 33008KT P6SM SCT025 BKN045
     FM241400 32014G21KT P6SM SCT025 BKN050
     FM242200 32011KT P6SM SCT050=



000
FTUS41 KOKX 240200 AAB
TAFLGA
TAF AMD
KLGA 240227Z 2402/2424 33012G19KT P6SM VCSH SCT015 OVC035
      TEMPO 2402/2403 SCT015 BKN025
     FM240600 33011KT P6SM SCT025 BKN040
     FM240900 33011KT P6SM SCT025 BKN050
     FM241500 32016G23KT P6SM SCT025 BKN050
     FM242200 32014KT P6SM SCT050=



000
FTUS41 KOKX 240200 AAB
TAFISP
TAF AMD
KISP 240227Z 2402/2424 33017G24KT P6SM VCSH OVC025
     FM240700 34012KT P6SM SCT025 OVC035
     FM241100 32010KT P6SM SCT025 BKN045
     FM241400 32014G21KT P6SM SCT025 BKN045
     FM242200 33010KT P6SM SCT045=



000
FTUS41 KOKX 240200 AAB
TAFLGA
TAF AMD
KLGA 240227Z 2402/2424 33012G19KT P6SM VCSH SCT015 OVC035
      TEMPO 2402/2403 SCT015 BKN025
     FM240600 33011KT P6SM SCT025 BKN040
     FM240900 33011KT P6SM SCT025 BKN050
     FM241500 32016G23KT P6SM SCT025 BKN050
     FM242200 32014KT P6SM SCT050=



000
FTUS41 KOKX 240200 AAC
TAFGON
TAF AMD
KGON 240227Z 2402/2424 35017G23KT P6SM VCSH BKN020
      TEMPO 2402/2403 SCT020 BKN060
     FM240800 34010KT P6SM BKN025
     FM241500 33014G20KT P6SM SCT020 BKN030
     FM241700 32014G22KT P6SM SCT030 BKN040
     FM242200 33010KT P6SM BKN045=



000
FTUS41 KOKX 240200 AAB
TAFISP
TAF AMD
KISP 240227Z 2402/2424 33017G24KT P6SM VCSH OVC025
     FM240700 34012KT P6SM SCT025 OVC035
     FM241100 32010KT P6SM SCT025 BKN045
     FM241400 32014G21KT P6SM SCT025 BKN045
     FM242200 33010KT P6SM SCT045=



000
FTUS41 KOKX 240200 AAB
TAFJFK
TAF AMD
KJFK 240227Z 2402/2506 33015G25KT P6SM VCSH FEW015 SCT025 OVC035
     FM240600 33013KT P6SM SCT025 BKN040
     FM241000 33013KT P6SM SCT025 BKN050
     FM241500 32016G24KT P6SM SCT025 BKN050
     FM242200 32014KT P6SM SCT050
     FM250200 31009KT P6SM SKC=



000
FTUS41 KOKX 240200 AAC
TAFGON
TAF AMD
KGON 240227Z 2402/2424 35017G23KT P6SM VCSH BKN020
      TEMPO 2402/2403 SCT020 BKN060
     FM240800 34010KT P6SM BKN025
     FM241500 33014G20KT P6SM SCT020 BKN030
     FM241700 32014G22KT P6SM SCT030 BKN040
     FM242200 33010KT P6SM BKN045=



000
FTUS41 KOKX 240200 AAB
TAFJFK
TAF AMD
KJFK 240227Z 2402/2506 33015G25KT P6SM VCSH FEW015 SCT025 OVC035
     FM240600 33013KT P6SM SCT025 BKN040
     FM241000 33013KT P6SM SCT025 BKN050
     FM241500 32016G24KT P6SM SCT025 BKN050
     FM242200 32014KT P6SM SCT050
     FM250200 31009KT P6SM SKC=



000
FTUS41 KOKX 240200 AAA
TAFTEB
TAF AMD
KTEB 240217Z 2402/2424 34008G15KT P6SM FEW025 OVC035
     FM240400 33007KT P6SM FEW025 BKN040
     FM240800 33007KT P6SM FEW025 BKN050
     FM241400 32014G22KT P6SM SCT025 BKN050
     FM242200 32010KT P6SM SCT050=



000
FTUS41 KOKX 240200 AAB
TAFGON
TAF AMD
KGON 240217Z 2402/2424 35017G23KT P6SM VCSH BKN020
      TEMPO 2402/2403 SCT020 BKN060
     FM240800 34010KT P6SM BKN025
     FM241500 33014G20KT P6SM SCT020 BKN030
     FM241700 32014G22KT P6SM SCT030 BKN040
     FM242200 33010KT P6SM BKN045=



000
FTUS41 KOKX 240200 AAA
TAFEWR
TAF AMD
KEWR 240217Z 2402/2506 33012G18KT P6SM SCT025 BKN040
      TEMPO 2402/2403 FEW020 SCT040 BKN080
     FM240600 33011KT P6SM SCT025 BKN040
     FM240800 33010KT P6SM SCT025 BKN050
     FM241400 32016G24KT P6SM SCT025 BKN050
     FM242200 32014KT P6SM SCT050
     FM250100 32010KT P6SM FEW050
     FM250300 30008KT P6SM SKC=



000
FTUS41 KOKX 240200 AAA
TAFISP
TAF AMD
KISP 240217Z 2402/2424 33017G24KT P6SM OVC025
     FM240700 34012KT P6SM SCT025 OVC035
     FM241100 32010KT P6SM SCT025 BKN045
     FM241400 32014G21KT P6SM SCT025 BKN045
     FM242200 33010KT P6SM SCT045=



000
FTUS41 KOKX 240200 AAA
TAFLGA
TAF AMD
KLGA 240217Z 2402/2424 33012G19KT P6SM SCT015 OVC035
      TEMPO 2402/2403 SCT015 BKN025
     FM240600 33011KT P6SM SCT025 BKN040
     FM240900 33011KT P6SM SCT025 BKN050
     FM241500 32016G23KT P6SM SCT025 BKN050
     FM242200 32014KT P6SM SCT050=



000
FTUS41 KOKX 240200 AAA
TAFJFK
TAF AMD
KJFK 240217Z 2402/2506 33015G25KT P6SM FEW015 SCT025 OVC035
     FM240600 33013KT P6SM SCT025 BKN040
     FM241000 33013KT P6SM SCT025 BKN050
     FM241500 32016G24KT P6SM SCT025 BKN050
     FM242200 32014KT P6SM SCT050
     FM250200 31009KT P6SM SKC=



000
FTUS41 KOKX 240200 AAA
TAFBDR
TAF AMD
KBDR 240217Z 2402/2424 34013G21KT P6SM SCT025 BKN060
      TEMPO 2402/2403 BKN025
     FM240400 34011KT P6SM SCT025 BKN050
     FM240900 33008KT P6SM SCT025 BKN050
     FM241400 32014G21KT P6SM SCT025 BKN050
     FM242200 32011KT P6SM SCT050=



000
FTUS41 KOKX 240200 AAA
TAFTEB
TAF AMD
KTEB 240217Z 2402/2424 34008G15KT P6SM FEW025 OVC035
     FM240400 33007KT P6SM FEW025 BKN040
     FM240800 33007KT P6SM FEW025 BKN050
     FM241400 32014G22KT P6SM SCT025 BKN050
     FM242200 32010KT P6SM SCT050=



000
FTUS41 KOKX 240200 AAA
TAFBDR
TAF AMD
KBDR 240217Z 2402/2424 34013G21KT P6SM SCT025 BKN060
      TEMPO 2402/2403 BKN025
     FM240400 34011KT P6SM SCT025 BKN050
     FM240900 33008KT P6SM SCT025 BKN050
     FM241400 32014G21KT P6SM SCT025 BKN050
     FM242200 32011KT P6SM SCT050=



000
FTUS41 KOKX 240200 AAB
TAFGON
TAF AMD
KGON 240217Z 2402/2424 35017G23KT P6SM VCSH BKN020
      TEMPO 2402/2403 SCT020 BKN060
     FM240800 34010KT P6SM BKN025
     FM241500 33014G20KT P6SM SCT020 BKN030
     FM241700 32014G22KT P6SM SCT030 BKN040
     FM242200 33010KT P6SM BKN045=



000
FTUS41 KOKX 240200 AAA
TAFEWR
TAF AMD
KEWR 240217Z 2402/2506 33012G18KT P6SM SCT025 BKN040
      TEMPO 2402/2403 FEW020 SCT040 BKN080
     FM240600 33011KT P6SM SCT025 BKN040
     FM240800 33010KT P6SM SCT025 BKN050
     FM241400 32016G24KT P6SM SCT025 BKN050
     FM242200 32014KT P6SM SCT050
     FM250100 32010KT P6SM FEW050
     FM250300 30008KT P6SM SKC=



000
FTUS41 KOKX 240200 AAA
TAFLGA
TAF AMD
KLGA 240217Z 2402/2424 33012G19KT P6SM SCT015 OVC035
      TEMPO 2402/2403 SCT015 BKN025
     FM240600 33011KT P6SM SCT025 BKN040
     FM240900 33011KT P6SM SCT025 BKN050
     FM241500 32016G23KT P6SM SCT025 BKN050
     FM242200 32014KT P6SM SCT050=



000
FTUS41 KOKX 240200 AAA
TAFJFK
TAF AMD
KJFK 240217Z 2402/2506 33015G25KT P6SM FEW015 SCT025 OVC035
     FM240600 33013KT P6SM SCT025 BKN040
     FM241000 33013KT P6SM SCT025 BKN050
     FM241500 32016G24KT P6SM SCT025 BKN050
     FM242200 32014KT P6SM SCT050
     FM250200 31009KT P6SM SKC=



000
FTUS41 KOKX 240200 AAA
TAFISP
TAF AMD
KISP 240217Z 2402/2424 33017G24KT P6SM OVC025
     FM240700 34012KT P6SM SCT025 OVC035
     FM241100 32010KT P6SM SCT025 BKN045
     FM241400 32014G21KT P6SM SCT025 BKN045
     FM242200 33010KT P6SM SCT045=



000
FTUS41 KOKX 232300 AAA
TAFGON
TAF AMD
KGON 232358Z 2400/2424 35015G25KT P6SM VCSH BKN017
      TEMPO 2400/2401 4SM SHRA
     FM240700 34009KT P6SM SCT015 OVC025
     FM241500 33014G20KT P6SM SCT020 OVC030
     FM241700 32014G22KT P6SM SCT030 BKN040
     FM242200 33010KT P6SM BKN045=



000
FTUS41 KOKX 232300 RRA
TAFGON
TAF
KGON 232354Z 2400/2424 35015G25KT P6SM VCSH BKN017
     FM240700 34009KT P6SM SCT015 OVC025
     FM241500 33014G20KT P6SM SCT020 OVC030
     FM241700 32014G22KT P6SM SCT030 BKN040
     FM242200 33010KT P6SM BKN045=



000
FTUS41 KOKX 232300 RRA
TAFSWF
TAF
KSWF 232351Z 2400/2506 36010KT P6SM VCSH SCT020 OVC030
     FM241400 34012KT P6SM FEW020 BKN035
     FM241600 34014G22KT P6SM BKN035
     FM242200 34009KT P6SM SCT035 BKN045
     FM250000 32006KT P6SM FEW035
      AMD NOT SKED=



000
FTUS41 KOKX 232300 RRA
TAFBDR
TAF
KBDR 232346Z 2400/2424 34016G24KT P6SM SCT025 BKN060
      TEMPO 2401/2403 BKN025
     FM240400 34012KT P6SM SCT025 BKN040
     FM240800 33008KT P6SM SCT025 BKN040
     FM241400 32014G21KT P6SM SCT025 BKN045
     FM242200 32011KT P6SM SCT045=



000
FTUS41 KOKX 232300 RRA
TAFJFK
TAF
KJFK 232342Z 2400/2506 33015G24KT P6SM SCT025 OVC035
      TEMPO 2400/2402 BKN025
     FM240500 33013KT P6SM SCT025 BKN040
     FM240900 33013KT P6SM SCT025 BKN050
     FM241500 32016G24KT P6SM SCT025 BKN050
     FM242200 32014KT P6SM SCT050
     FM250200 31009KT P6SM SKC=



000
FTUS41 KOKX 232300 RRA
TAFLGA
TAF
KLGA 232342Z 2400/2424 33016G25KT P6SM SCT025 BKN040
      TEMPO 2400/2402 BKN025
     FM240500 33013G20KT P6SM SCT025 BKN040
     FM240800 33012KT P6SM SCT025 BKN050
     FM241500 32016G23KT P6SM SCT025 BKN050
     FM242200 32014KT P6SM SCT050=



000
FTUS41 KOKX 232300 RRA
TAFTEB
TAF
KTEB 232342Z 2400/2424 33011G19KT P6SM FEW015 OVC035
      TEMPO 2400/2401 FEW015 BKN025
     FM240200 33011G18KT P6SM SCT025 BKN040
     FM240500 33008KT P6SM SCT025 BKN040
     FM241400 32014G22KT P6SM SCT025 BKN050
     FM242200 32010KT P6SM SCT050=



000
FTUS41 KOKX 232300 RRA
TAFEWR
TAF
KEWR 232342Z 2400/2506 33015G22KT P6SM FEW015 SCT025 OVC035
     FM240200 33015G22KT P6SM SCT025 BKN040
     FM240500 33014G20KT P6SM SCT025 BKN040
     FM240700 32012KT P6SM SCT025 BKN050
     FM241400 32016G24KT P6SM SCT025 BKN050
     FM242200 32014KT P6SM SCT050
     FM250100 32010KT P6SM FEW050
     FM250300 30008KT P6SM SKC=



000
FTUS41 KOKX 232300 RRA
TAFISP
TAF
KISP 232342Z 2400/2424 33018G26KT P6SM OVC025
     FM240600 34013KT P6SM SCT025 OVC035
     FM241100 32010KT P6SM SCT025 BKN045
     FM241400 32014G21KT P6SM SCT025 BKN045
     FM242200 33010KT P6SM SCT045=



000
FTUS41 KOKX 232000 AAB
TAFTEB
TAF AMD
KTEB 232043Z 2321/2418 34013G20KT P6SM VCSH BKN020 OVC040
      TEMPO 2321/2323 SCT025 OVC040
     FM232300 34013G20KT P6SM BKN040 BKN060
     FM240400 33010KT P6SM BKN050 BKN080
     FM241400 32013G20KT P6SM BKN050=



000
FTUS41 KOKX 232000 AAB
TAFJFK
TAF AMD
KJFK 232043Z 2321/2424 34019G28KT P6SM VCSH BKN020 BKN025 OVC040
      TEMPO 2321/2323 SCT020 OVC040
     FM232300 33019G27KT P6SM BKN040 BKN070
     FM240500 33014KT P6SM BKN050 BKN080
     FM241400 32013G23KT P6SM BKN050
     FM242200 32013G19KT P6SM SCT050=



000
FTUS41 KOKX 232000 AAB
TAFLGA
TAF AMD
KLGA 232043Z 2321/2418 34019G28KT P6SM VCSH SCT015 BKN025 OVC040
      TEMPO 2321/2323 SCT025 OVC040
     FM232300 34019G28KT P6SM BKN040 BKN080
     FM240500 33016G22KT P6SM BKN050 BKN080
     FM241400 32014G21KT P6SM BKN050=



000
FTUS41 KOKX 232000 AAB
TAFEWR
TAF AMD
KEWR 232043Z 2321/2424 33015G23KT P6SM VCSH SCT015 BKN020 OVC035
      TEMPO 2321/2323 SCT020 OVC035
     FM232300 33016G23KT P6SM BKN040 BKN080
     FM240400 32012KT P6SM BKN050 BKN080
     FM241400 32015G22KT P6SM BKN050
     FM242200 32012G18KT P6SM SCT050=



000
FTUS41 KOKX 232000 AAB
TAFGON
TAF AMD
KGON 232043Z 2321/2418 36017G25KT P6SM VCSH OVC017
     FM240300 35016G24KT P6SM BKN025 OVC050
     FM240700 33012KT P6SM SCT030 OVC040
     FM241500 33014G24KT P6SM BKN040=



000
FTUS41 KOKX 232000 AAB
TAFISP
TAF AMD
KISP 232043Z 2321/2418 34016G26KT P6SM VCSH BKN015 OVC025
      TEMPO 2323/2324 SCT015 OVC025
     FM240000 34016G26KT P6SM BKN035 BKN060
     FM240500 34015G22KT P6SM BKN035 BKN060
     FM240800 33013KT P6SM BKN035 BKN080
     FM241500 33015G23KT P6SM BKN040=



000
FTUS41 KOKX 232000 AAB
TAFBDR
TAF AMD
KBDR 232043Z 2321/2418 34017G25KT P6SM VCSH FEW015 OVC025
      TEMPO 2321/2323 SCT025 OVC035
     FM232300 35016G24KT P6SM BKN035 BKN060
     FM240600 33012KT P6SM BKN035 BKN060
     FM241500 33013G20KT P6SM BKN040=



000
FTUS41 KOKX 231900 AAA
TAFBDR
TAF AMD
KBDR 231907Z 2319/2418 34016G24KT P6SM VCSH OVC025
      TEMPO 2319/2323 SCT025 OVC035
     FM232300 34014G22KT P6SM BKN035 BKN060
     FM240700 33012KT P6SM BKN035 BKN060
     FM241500 33013G20KT P6SM BKN040=



000
FTUS41 KOKX 231900 AAA
TAFSWF
TAF AMD
KSWF 231907Z 2319/2424 36015G25KT P6SM VCSH BKN015 OVC030
     FM232000 36015G25KT P6SM VCSH BKN025 OVC050
      TEMPO 2320/2323 SCT025 OVC050
     FM232300 34012KT P6SM BKN035 BKN060
     FM240300 32010KT P6SM BKN040 BKN060
     FM241400 32013G21KT P6SM BKN040
     FM242100 30011KT P6SM SCT040
      AMD NOT SKED=



000
FTUS41 KOKX 231900 AAA
TAFGON
TAF AMD
KGON 231907Z 2319/2418 36015G23KT P6SM VCSH OVC014
      TEMPO 2322/2402 SCT014 OVC025
     FM240200 34013G24KT P6SM BKN025 OVC050
     FM240700 33012KT P6SM SCT030 OVC040
     FM241500 33014G24KT P6SM BKN040=



000
FTUS41 KOKX 231900 AAA
TAFISP
TAF AMD
KISP 231907Z 2319/2418 34015G24KT P6SM VCSH FEW008 OVC015
      TEMPO 2319/2322 SCT015 OVC025
     FM240000 33015G22KT P6SM BKN035 BKN060
     FM240700 33013KT P6SM BKN035 BKN080
     FM241500 33015G23KT P6SM BKN040=



000
FTUS41 KOKX 231900 AAA
TAFBDR
TAF AMD
KBDR 231907Z 2319/2418 34016G24KT P6SM VCSH OVC025
      TEMPO 2319/2323 SCT025 OVC035
     FM232300 34014G22KT P6SM BKN035 BKN060
     FM240700 33012KT P6SM BKN035 BKN060
     FM241500 33013G20KT P6SM BKN040=



000
FTUS41 KOKX 231900 AAA
TAFGON
TAF AMD
KGON 231907Z 2319/2418 36015G23KT P6SM VCSH OVC014
      TEMPO 2322/2402 SCT014 OVC025
     FM240200 34013G24KT P6SM BKN025 OVC050
     FM240700 33012KT P6SM SCT030 OVC040
     FM241500 33014G24KT P6SM BKN040=



000
FTUS41 KOKX 231900 AAA
TAFISP
TAF AMD
KISP 231907Z 2319/2418 34015G24KT P6SM VCSH FEW008 OVC015
      TEMPO 2319/2322 SCT015 OVC025
     FM240000 33015G22KT P6SM BKN035 BKN060
     FM240700 33013KT P6SM BKN035 BKN080
     FM241500 33015G23KT P6SM BKN040=



000
FTUS41 KOKX 231900 AAA
TAFSWF
TAF AMD
KSWF 231907Z 2319/2424 36015G25KT P6SM VCSH BKN015 OVC030
     FM232000 36015G25KT P6SM VCSH BKN025 OVC050
      TEMPO 2320/2323 SCT025 OVC050
     FM232300 34012KT P6SM BKN035 BKN060
     FM240300 32010KT P6SM BKN040 BKN060
     FM241400 32013G21KT P6SM BKN040
     FM242100 30011KT P6SM SCT040
      AMD NOT SKED=



000
FTUS41 KOKX 231900 AAA
TAFJFK
TAF AMD
KJFK 231901Z 2319/2424 34019G28KT P6SM VCSH SCT019 BKN025 OVC050
      TEMPO 2319/2323 SCT025 OVC050
     FM232300 33017G25KT P6SM BKN035 BKN070
     FM240500 33014KT P6SM BKN050 BKN080
     FM241400 32013G23KT P6SM BKN050
     FM242200 32013G19KT P6SM SCT050=



000
FTUS41 KOKX 231900 AAA
TAFTEB
TAF AMD
KTEB 231901Z 2319/2418 34013G21KT P6SM VCSH FEW015 OVC025
      TEMPO 2319/2323 SCT025 OVC035
     FM232300 33011G17KT P6SM BKN035 BKN060
     FM240200 33010KT P6SM BKN050 BKN080
     FM241400 32013G20KT P6SM BKN050=



000
FTUS41 KOKX 231900 AAA
TAFLGA
TAF AMD
KLGA 231901Z 2319/2418 34017G25KT P6SM VCSH FEW015 BKN025 OVC035
      TEMPO 2319/2320 3SM RA BR BKN015
     FM232000 34015G27KT P6SM VCSH BKN025 OVC035
      TEMPO 2320/2323 SCT025 OVC040
     FM232300 34015G26KT P6SM BKN040 BKN080
     FM240500 33014KT P6SM BKN050 BKN080
     FM241400 32014G21KT P6SM BKN050=



000
FTUS41 KOKX 231900 AAA
TAFEWR
TAF AMD
KEWR 231901Z 2319/2424 35015G25KT P6SM VCSH SCT015 BKN020 OVC035
      TEMPO 2319/2323 SCT020 OVC035
     FM232300 33014G22KT P6SM BKN040 BKN080
     FM240400 32013KT P6SM BKN050 BKN080
     FM241400 32015G22KT P6SM BKN050
     FM242200 32012G18KT P6SM SCT050=



000
FTUS41 KOKX 231900 AAA
TAFLGA
TAF AMD
KLGA 231901Z 2319/2418 34017G25KT P6SM VCSH FEW015 BKN025 OVC035
      TEMPO 2319/2320 3SM RA BR BKN015
     FM232000 34015G27KT P6SM VCSH BKN025 OVC035
      TEMPO 2320/2323 SCT025 OVC040
     FM232300 34015G26KT P6SM BKN040 BKN080
     FM240500 33014KT P6SM BKN050 BKN080
     FM241400 32014G21KT P6SM BKN050=



000
FTUS41 KOKX 231900 AAA
TAFJFK
TAF AMD
KJFK 231901Z 2319/2424 34019G28KT P6SM VCSH SCT019 BKN025 OVC050
      TEMPO 2319/2323 SCT025 OVC050
     FM232300 33017G25KT P6SM BKN035 BKN070
     FM240500 33014KT P6SM BKN050 BKN080
     FM241400 32013G23KT P6SM BKN050
     FM242200 32013G19KT P6SM SCT050=



000
FTUS41 KOKX 231900 AAA
TAFTEB
TAF AMD
KTEB 231901Z 2319/2418 34013G21KT P6SM VCSH FEW015 OVC025
      TEMPO 2319/2323 SCT025 OVC035
     FM232300 33011G17KT P6SM BKN035 BKN060
     FM240200 33010KT P6SM BKN050 BKN080
     FM241400 32013G20KT P6SM BKN050=



000
FTUS41 KOKX 231900 AAA
TAFEWR
TAF AMD
KEWR 231901Z 2319/2424 35015G25KT P6SM VCSH SCT015 BKN020 OVC035
      TEMPO 2319/2323 SCT020 OVC035
     FM232300 33014G22KT P6SM BKN040 BKN080
     FM240400 32013KT P6SM BKN050 BKN080
     FM241400 32015G22KT P6SM BKN050
     FM242200 32012G18KT P6SM SCT050=



000
FTUS41 KOKX 231700
TAFBDR
TAF
KBDR 231720Z 2318/2418 34016G24KT P6SM VCSH OVC025
     FM240000 34014G22KT P6SM BKN025 BKN060
     FM240700 33012KT P6SM BKN035 BKN060
     FM241500 33013G20KT P6SM BKN040=



000
FTUS41 KOKX 231700
TAFJFK
TAF
KJFK 231720Z 2318/2424 34019G28KT P6SM VCSH FEW015 BKN025 OVC070
      TEMPO 2318/2320 BKN015
     FM232300 33017G25KT P6SM BKN035 BKN070
     FM240500 33014KT P6SM BKN050 BKN080
     FM241400 32013G23KT P6SM BKN050
     FM242200 32013G19KT P6SM SCT050=



000
FTUS41 KOKX 231700
TAFLGA
TAF
KLGA 231720Z 2318/2418 35017G27KT P6SM VCSH FEW015 BKN025 OVC060
      TEMPO 2318/2320 BKN015
     FM232300 34015G26KT P6SM BKN035 BKN080
     FM240500 33014KT P6SM BKN050 BKN080
     FM241400 32014G21KT P6SM BKN050=



000
FTUS41 KOKX 231700
TAFISP
TAF
KISP 231720Z 2318/2418 35015G24KT P6SM VCSH FEW015 OVC025
      TEMPO 2318/2322 BKN015
     FM240000 33015G22KT P6SM BKN030 BKN060
     FM240700 33013KT P6SM BKN035 BKN080
     FM241500 33015G23KT P6SM BKN040=



000
FTUS41 KOKX 231700
TAFTEB
TAF
KTEB 231720Z 2318/2418 35013G21KT P6SM -SHRA FEW015 OVC025
      TEMPO 2318/2320 5SM -SHRA BR BKN015
     FM232000 34012G19KT P6SM VCSH BKN030 OVC060
     FM232300 33011G17KT P6SM BKN035 BKN060
     FM240200 33010KT P6SM BKN050 BKN080
     FM241400 32013G20KT P6SM BKN050=



000
FTUS41 KOKX 231700
TAFGON
TAF
KGON 231720Z 2318/2418 36015G25KT P6SM VCSH SCT012 BKN020
      TEMPO 2318/2322 BKN012
     FM240200 34013G24KT P6SM BKN025 OVC050
     FM240700 33012KT P6SM SCT030 OVC040
     FM241500 33014G24KT P6SM BKN040=



000
FTUS41 KOKX 231700
TAFEWR
TAF
KEWR 231720Z 2318/2424 35018G26KT P6SM -SHRA FEW012 SCT025 OVC030
      TEMPO 2318/2320 5SM -SHRA BR BKN012
     FM232000 34017G25KT P6SM VCSH BKN035 OVC060
     FM232300 33014G22KT P6SM BKN040 BKN080
     FM240400 32013KT P6SM BKN050 BKN080
     FM241400 32015G22KT P6SM BKN050
     FM242200 32012G18KT P6SM SCT050=



000
FTUS41 KOKX 231700
TAFSWF
TAF
KSWF 231720Z 2318/2424 36015G25KT 3SM -SHRA BR BKN020 OVC050
     FM232000 36015G25KT P6SM VCSH BKN025 OVC050
     FM232300 34012KT P6SM BKN030 BKN060
     FM240300 32010KT P6SM BKN040 BKN060
     FM241400 32013G21KT P6SM BKN040
     FM242100 30011KT P6SM SCT040
      AMD NOT SKED=



000
FTUS41 KOKX 231400 AAA
TAFSWF
TAF AMD
KSWF 231442Z 2315/2418 01015G25KT P6SM VCSH BKN025 BKN035
      TEMPO 2315/2318 4SM -SHRA BR BKN008 OVC015
     FM232200 33011KT P6SM BKN030 BKN060
     FM240300 31010KT P6SM BKN040 BKN060
     FM240800 30008KT P6SM BKN040 BKN080
     FM241300 31012KT P6SM BKN040 BKN080
      AMD NOT SKED=



000
FTUS41 KOKX 231400 AAA
TAFSWF
TAF AMD
KSWF 231442Z 2315/2418 01015G25KT P6SM VCSH BKN025 BKN035
      TEMPO 2315/2318 4SM -SHRA BR BKN008 OVC015
     FM232200 33011KT P6SM BKN030 BKN060
     FM240300 31010KT P6SM BKN040 BKN060
     FM240800 30008KT P6SM BKN040 BKN080
     FM241300 31012KT P6SM BKN040 BKN080
      AMD NOT SKED=



000
FTUS41 KOKX 231400 AAA
TAFISP
TAF AMD
KISP 231430Z 2315/2412 36018G28KT P6SM VCSH SCT015 OVC025
     FM240000 33016G25KT P6SM BKN030 BKN080
     FM240400 33013G21KT P6SM BKN040 BKN080
     FM240900 33013KT P6SM BKN050 BKN080=



000
FTUS41 KOKX 231400 AAA
TAFLGA
TAF AMD
KLGA 231430Z 2315/2412 35018G28KT P6SM VCSH BKN025 OVC060
     FM231900 34017G27KT P6SM BKN040 OVC060
     FM232200 33015G24KT P6SM BKN040 BKN080
     FM240400 33012G21KT P6SM BKN050 BKN080
     FM240900 33011KT P6SM BKN050 BKN080=



000
FTUS41 KOKX 231400 AAA
TAFEWR
TAF AMD
KEWR 231430Z 2315/2418 35018G27KT P6SM VCSH SCT013 BKN025 OVC080
      TEMPO 2315/2317 BKN013
     FM231900 34018G26KT P6SM BKN030 OVC080
     FM232200 33014G23KT P6SM BKN040 BKN080
     FM240300 33013G19KT P6SM BKN050 BKN080
     FM240800 33010KT P6SM BKN050 BKN080
     FM241300 33012G19KT P6SM BKN050 BKN080=



000
FTUS41 KOKX 231400 AAA
TAFTEB
TAF AMD
KTEB 231430Z 2315/2412 35014G23KT P6SM VCSH SCT015 BKN025 OVC060
      TEMPO 2315/2317 BKN015
     FM231900 34014G21KT P6SM BKN030 OVC080
     FM232200 33012G20KT P6SM BKN040 BKN080
     FM240300 33011G16KT P6SM BKN050 BKN080
     FM240600 33008KT P6SM BKN050 BKN080=



000
FTUS41 KOKX 231400 AAA
TAFBDR
TAF AMD
KBDR 231430Z 2315/2412 36019G27KT P6SM VCSH BKN025 OVC060
     FM240000 34015G24KT P6SM BKN030 BKN080
     FM240400 33013G22KT P6SM BKN040 BKN080
     FM240900 33011KT P6SM BKN050 BKN080=



000
FTUS41 KOKX 231400 AAA
TAFBDR
TAF AMD
KBDR 231430Z 2315/2412 36019G27KT P6SM VCSH BKN025 OVC060
     FM240000 34015G24KT P6SM BKN030 BKN080
     FM240400 33013G22KT P6SM BKN040 BKN080
     FM240900 33011KT P6SM BKN050 BKN080=



000
FTUS41 KOKX 231400 AAA
TAFISP
TAF AMD
KISP 231430Z 2315/2412 36018G28KT P6SM VCSH SCT015 OVC025
     FM240000 33016G25KT P6SM BKN030 BKN080
     FM240400 33013G21KT P6SM BKN040 BKN080
     FM240900 33013KT P6SM BKN050 BKN080=



000
FTUS41 KOKX 231400 AAA
TAFEWR
TAF AMD
KEWR 231430Z 2315/2418 35018G27KT P6SM VCSH SCT013 BKN025 OVC080
      TEMPO 2315/2317 BKN013
     FM231900 34018G26KT P6SM BKN030 OVC080
     FM232200 33014G23KT P6SM BKN040 BKN080
     FM240300 33013G19KT P6SM BKN050 BKN080
     FM240800 33010KT P6SM BKN050 BKN080
     FM241300 33012G19KT P6SM BKN050 BKN080=



000
FTUS41 KOKX 231400 AAA
TAFTEB
TAF AMD
KTEB 231430Z 2315/2412 35014G23KT P6SM VCSH SCT015 BKN025 OVC060
      TEMPO 2315/2317 BKN015
     FM231900 34014G21KT P6SM BKN030 OVC080
     FM232200 33012G20KT P6SM BKN040 BKN080
     FM240300 33011G16KT P6SM BKN050 BKN080
     FM240600 33008KT P6SM BKN050 BKN080=



000
FTUS41 KOKX 231400 AAA
TAFLGA
TAF AMD
KLGA 231430Z 2315/2412 35018G28KT P6SM VCSH BKN025 OVC060
     FM231900 34017G27KT P6SM BKN040 OVC060
     FM232200 33015G24KT P6SM BKN040 BKN080
     FM240400 33012G21KT P6SM BKN050 BKN080
     FM240900 33011KT P6SM BKN050 BKN080=



000
FTUS41 KOKX 231400 AAA
TAFGON
TAF AMD
KGON 231430Z 2315/2412 01019G28KT P6SM VCSH SCT012 BKN025
     FM240100 34015G24KT P6SM BKN030 BKN080
     FM240400 33013G21KT P6SM FEW030 BKN040 BKN080
     FM241000 33013KT P6SM BKN040 BKN080=



000
FTUS41 KOKX 231400 AAA
TAFJFK
TAF AMD
KJFK 231430Z 2315/2418 35020G28KT P6SM VCSH BKN025 OVC070
     FM231900 34019G28KT P6SM BKN030 OVC070
     FM232200 33017G25KT P6SM BKN040 BKN080
     FM240400 33015G21KT P6SM BKN050 BKN080
     FM240900 33013KT P6SM BKN050 BKN080
     FM241300 33013G20KT P6SM BKN050 BKN080=



000
FTUS41 KOKX 231400 AAA
TAFGON
TAF AMD
KGON 231430Z 2315/2412 01019G28KT P6SM VCSH SCT012 BKN025
     FM240100 34015G24KT P6SM BKN030 BKN080
     FM240400 33013G21KT P6SM FEW030 BKN040 BKN080
     FM241000 33013KT P6SM BKN040 BKN080=



000
FTUS41 KOKX 231400 AAA
TAFJFK
TAF AMD
KJFK 231430Z 2315/2418 35020G28KT P6SM VCSH BKN025 OVC070
     FM231900 34019G28KT P6SM BKN030 OVC070
     FM232200 33017G25KT P6SM BKN040 BKN080
     FM240400 33015G21KT P6SM BKN050 BKN080
     FM240900 33013KT P6SM BKN050 BKN080
     FM241300 33013G20KT P6SM BKN050 BKN080=



000
FTUS41 KOKX 231100
TAFGON
TAF
KGON 231124Z 2312/2412 01019G28KT P6SM VCSH SCT012 BKN020
      TEMPO 2312/2315 5SM -SHRA BKN012
     FM231500 36018G27KT P6SM VCSH BKN020 BKN030
     FM240100 34015G24KT P6SM BKN030 BKN080
     FM240400 33013G21KT P6SM FEW030 BKN040 BKN080
     FM241000 33013KT P6SM BKN040 BKN080=



000
FTUS41 KOKX 231100
TAFTEB
TAF
KTEB 231124Z 2312/2412 36015G24KT P6SM VCSH SCT015 BKN025
      TEMPO 2312/2315 5SM -SHRA BKN015
     FM231500 35015G23KT P6SM VCSH BKN025 BKN040
     FM232200 33012G20KT P6SM BKN040 BKN080
     FM240300 33011G16KT P6SM BKN050 BKN080
     FM240600 33008KT P6SM BKN050 BKN080=



000
FTUS41 KOKX 231100
TAFJFK
TAF
KJFK 231124Z 2312/2418 35020G30KT P6SM VCSH SCT015 BKN025
      TEMPO 2312/2315 5SM -SHRA BKN015
     FM231500 34020G29KT P6SM VCSH BKN025 BKN040
     FM232200 33017G25KT P6SM BKN040 BKN080
     FM240400 33015G21KT P6SM BKN050 BKN080
     FM240900 33013KT P6SM BKN050 BKN080
     FM241300 33013G20KT P6SM BKN050 BKN080=



000
FTUS41 KOKX 231100
TAFISP
TAF
KISP 231124Z 2312/2412 36019G29KT P6SM VCSH SCT015 BKN025
      TEMPO 2312/2315 5SM -SHRA BKN015
     FM231500 35019G29KT P6SM VCSH BKN025 BKN040
     FM240000 33016G25KT P6SM BKN030 BKN080
     FM240400 33013G21KT P6SM BKN040 BKN080
     FM240900 33013KT P6SM BKN050 BKN080=



000
FTUS41 KOKX 231100
TAFLGA
TAF
KLGA 231124Z 2312/2412 35018G28KT P6SM VCSH SCT012 BKN020
      TEMPO 2312/2315 5SM -SHRA BKN012
     FM231500 34018G28KT P6SM VCSH BKN020 BKN040
     FM232200 33015G24KT P6SM BKN040 BKN080
     FM240400 33012G21KT P6SM BKN050 BKN080
     FM240900 33011KT P6SM BKN050 BKN080=



000
FTUS41 KOKX 231100
TAFSWF
TAF
KSWF 231124Z 2312/2418 01014G24KT 6SM -SHRA SCT012 BKN020
      TEMPO 2312/2315 4SM -SHRA BKN012
     FM231500 36013G23KT P6SM VCSH BKN025 BKN035
     FM232200 33011KT P6SM BKN030 BKN060
     FM240300 31010KT P6SM BKN040 BKN060
     FM240800 30008KT P6SM BKN040 BKN080
     FM241300 31012KT P6SM BKN040 BKN080
      AMD NOT SKED=



000
FTUS41 KOKX 231100
TAFEWR
TAF
KEWR 231124Z 2312/2418 35018G27KT P6SM VCSH SCT015 BKN025
      TEMPO 2312/2315 5SM -SHRA BKN015
     FM231500 34017G26KT P6SM VCSH BKN025 BKN040
     FM232200 33014G23KT P6SM BKN040 BKN080
     FM240300 33013G19KT P6SM BKN050 BKN080
     FM240800 33010KT P6SM BKN050 BKN080
     FM241300 33012G19KT P6SM BKN050 BKN080=



000
FTUS41 KOKX 231100
TAFBDR
TAF
KBDR 231124Z 2312/2412 36019G29KT P6SM VCSH SCT015 BKN025
      TEMPO 2312/2315 5SM -SHRA BKN015
     FM231500 35018G27KT P6SM VCSH BKN025 BKN040
     FM240000 34015G24KT P6SM BKN030 BKN080
     FM240400 33013G22KT P6SM BKN040 BKN080
     FM240900 33011KT P6SM BKN050 BKN080=



000
FTUS41 KOKX 231000 AAC
TAFTEB
TAF AMD
KTEB 231034Z 2311/2406 36014G23KT P6SM SCT015 BKN025
      TEMPO 2311/2314 5SM -RA BR BKN015
     FM231400 35014G23KT P6SM VCSH BKN025
     FM231800 33013G22KT P6SM BKN030 OVC040
     FM232200 33012G20KT P6SM BKN040 BKN080
     FM240200 33011G16KT P6SM BKN050 BKN080=



000
FTUS41 KOKX 231000 AAC
TAFJFK
TAF AMD
KJFK 231033Z 2311/2412 35016G26KT P6SM SCT015 BKN025
      TEMPO 2311/2314 5SM -RA BR BKN015
     FM231400 34021G29KT P6SM VCSH BKN025
     FM231800 33020G28KT P6SM BKN025 OVC035
     FM232300 33017G25KT P6SM BKN040 BKN080
     FM240400 33015G21KT P6SM BKN050 BKN080=



000
FTUS41 KOKX 231000 AAC
TAFEWR
TAF AMD
KEWR 231033Z 2311/2412 36016G26KT P6SM SCT015 BKN025
      TEMPO 2311/2313 5SM -RA BR BKN015
     FM231400 34018G28KT P6SM VCSH BKN025
     FM231800 33018G26KT P6SM BKN025 OVC035
     FM232200 33016G23KT P6SM BKN040 BKN080
     FM240400 33014G20KT P6SM BKN050 BKN080=



000
FTUS41 KOKX 231000 AAC
TAFLGA
TAF AMD
KLGA 231033Z 2311/2406 01016G26KT P6SM SCT015 BKN025
      TEMPO 2311/2313 5SM -RA BR BKN015
     FM231400 35018G28KT P6SM VCSH BKN025
     FM231800 34018G27KT P6SM BKN025 OVC035
     FM232300 33015G24KT P6SM BKN040 BKN080
     FM240400 33013G21KT P6SM BKN050 BKN080=



000
FTUS41 KOKX 230800 AAB
TAFGON
TAF AMD
KGON 230830Z 2309/2406 01021G30KT P6SM BKN020
      TEMPO 2309/2311 4SM -RA BR BKN015 BKN030
     FM231100 01020G30KT 6SM BR VCSH BKN015
     FM231400 36018G27KT P6SM VCSH BKN015
     FM231900 35017G26KT P6SM BKN020 OVC030
     FM240100 35015G25KT P6SM FEW030 BKN040 BKN080=



000
FTUS41 KOKX 230800 AAB
TAFTEB
TAF AMD
KTEB 230830Z 2309/2406 36015G25KT P6SM BKN020
      TEMPO 2309/2311 5SM -RA BR BKN012
     FM231100 35015G24KT 6SM BR VCSH BKN015
     FM231400 34015G23KT P6SM VCSH BKN015
     FM231800 33013G22KT P6SM BKN030 OVC040
     FM232200 33012G20KT P6SM BKN040 BKN080
     FM240200 33011G16KT P6SM BKN050 BKN080=



000
FTUS41 KOKX 230800 AAB
TAFISP
TAF AMD
KISP 230830Z 2309/2406 01022G31KT P6SM OVC020
      TEMPO 2309/2311 4SM -RA BR BKN012
     FM231100 36021G30KT 6SM BR VCSH BKN015
     FM231400 34019G29KT P6SM VCSH BKN015
     FM231900 34017G27KT P6SM BKN025 OVC035
     FM240000 33015G25KT P6SM BKN040 BKN080
     FM240400 33013G22KT P6SM BKN050 BKN080=



000
FTUS41 KOKX 230800 AAB
TAFSWF
TAF AMD
KSWF 230830Z 2309/2412 01015G25KT P6SM OVC015
      TEMPO 2309/2311 4SM -RA BR
     FM231100 01014G24KT 5SM BR VCSH BKN010
     FM231400 36013G24KT P6SM VCSH BKN015
     FM231800 34013G22KT P6SM BKN025 OVC035
     FM232200 33011KT P6SM BKN035 BKN080
     FM240400 30010KT P6SM BKN040 BKN080
      AMD NOT SKED=



000
FTUS41 KOKX 230800 AAB
TAFLGA
TAF AMD
KLGA 230830Z 2309/2406 01018G25KT P6SM BKN020
      TEMPO 2309/2311 5SM -RA BR BKN012
     FM231100 36018G28KT 6SM BR VCSH BKN015
     FM231400 34018G28KT P6SM VCSH BKN015
     FM231800 33018G27KT P6SM BKN025 OVC035
     FM232300 33015G24KT P6SM BKN040 BKN080
     FM240400 33013G21KT P6SM BKN050 BKN080=



000
FTUS41 KOKX 230800 AAB
TAFEWR
TAF AMD
KEWR 230830Z 2309/2412 36019G28KT P6SM BKN020
      TEMPO 2309/2311 5SM -RA BR BKN012
     FM231100 36018G28KT 6SM BR VCSH BKN015
     FM231400 34018G28KT P6SM VCSH BKN015
     FM231800 33018G26KT P6SM BKN025 OVC035
     FM232200 33016G23KT P6SM BKN040 BKN080
     FM240400 33014G20KT P6SM BKN050 BKN080=



000
FTUS41 KOKX 230800 AAB
TAFJFK
TAF AMD
KJFK 230830Z 2309/2412 01023G30KT P6SM BKN020
      TEMPO 2309/2311 5SM -RA BR BKN012
     FM231100 36022G31KT 6SM BR VCSH BKN015
     FM231400 34021G29KT P6SM VCSH BKN015
     FM231800 33020G28KT P6SM BKN025 OVC035
     FM232300 33017G25KT P6SM BKN040 BKN080
     FM240400 33015G21KT P6SM BKN050 BKN080=



000
FTUS41 KOKX 230800 AAB
TAFBDR
TAF AMD
KBDR 230830Z 2309/2406 36021G30KT P6SM OVC020
      TEMPO 2309/2311 5SM -RA BR BKN012
     FM231100 01021G29KT 6SM BR VCSH BKN015
     FM231400 35018G27KT P6SM VCSH BKN015
     FM231900 34017G26KT P6SM BKN025 OVC035
     FM240000 33015G24KT P6SM BKN040 BKN080
     FM240400 33013G22KT P6SM BKN050 BKN080=



000
FTUS41 KOKX 230700 AAA
TAFGON
TAF AMD
KGON 230736Z 2308/2406 01021G31KT P6SM BKN020
      TEMPO 2309/2311 4SM -RA BR BKN015 BKN030
     FM231100 01020G30KT 6SM BR VCSH BKN015
     FM231400 36018G27KT P6SM VCSH BKN015
     FM231900 35017G26KT P6SM BKN020 OVC030
     FM240100 35015G25KT P6SM FEW030 BKN040 BKN080=



000
FTUS41 KOKX 230700 AAA
TAFSWF
TAF AMD
KSWF 230735Z 2308/2412 01015G25KT P6SM OVC020
      TEMPO 2308/2311 4SM -RA BR BKN012
     FM231100 01014G24KT 5SM BR VCSH BKN010
     FM231400 36013G24KT P6SM VCSH BKN015
     FM231800 34013G22KT P6SM BKN025 OVC035
     FM232200 33011KT P6SM BKN035 BKN080
     FM240400 30010KT P6SM BKN040 BKN080
      AMD NOT SKED=



000
FTUS41 KOKX 230700 AAA
TAFBDR
TAF AMD
KBDR 230733Z 2308/2406 01022G33KT P6SM OVC020
      TEMPO 2308/2311 4SM -RA BR BKN012
     FM231100 01021G29KT 6SM BR VCSH BKN015
     FM231400 35018G27KT P6SM VCSH BKN015
     FM231900 34017G26KT P6SM BKN025 OVC035
     FM240000 33015G24KT P6SM BKN040 BKN080
     FM240400 33013G22KT P6SM BKN050 BKN080=



000
FTUS41 KOKX 230700 AAA
TAFISP
TAF AMD
KISP 230733Z 2308/2406 01022G33KT P6SM OVC020
      TEMPO 2308/2311 4SM -RA BR BKN012
     FM231100 36021G30KT 6SM BR VCSH BKN015
     FM231400 34019G29KT P6SM VCSH BKN015
     FM231900 34017G27KT P6SM BKN025 OVC035
     FM240000 33015G25KT P6SM BKN040 BKN080
     FM240400 33013G22KT P6SM BKN050 BKN080=



000
FTUS41 KOKX 230700 CCA
TAFTEB
TAF COR
KTEB 230733Z 2308/2406 36015G25KT P6SM BKN020
      TEMPO 2308/2311 5SM -RA BR BKN012
     FM231100 35015G24KT 6SM BR VCSH BKN015
     FM231400 34015G23KT P6SM VCSH BKN015
     FM231800 33013G22KT P6SM BKN030 OVC040
     FM232200 33012G20KT P6SM BKN040 BKN080
     FM240200 33011G16KT P6SM BKN050 BKN080=



000
FTUS41 KOKX 230700 AAA
TAFEWR
TAF AMD
KEWR 230731Z 2308/2412 01019G28KT P6SM BKN020
      TEMPO 2308/2311 5SM -RA BR BKN012
     FM231100 36018G28KT 6SM BR VCSH BKN015
     FM231400 34018G28KT P6SM VCSH BKN015
     FM231800 33018G26KT P6SM BKN025 OVC035
     FM232200 33016G23KT P6SM BKN040 BKN080
     FM240400 33014G20KT P6SM BKN050 BKN080=



000
FTUS41 KOKX 230700 AAA
TAFLGA
TAF AMD
KLGA 230731Z 2308/2406 01018G28KT P6SM BKN020
      TEMPO 2308/2311 5SM -RA BR BKN012
     FM231100 36018G28KT 6SM BR VCSH BKN015
     FM231400 34018G28KT P6SM VCSH BKN015
     FM231800 33018G27KT P6SM BKN025 OVC035
     FM232300 33015G24KT P6SM BKN040 BKN080
     FM240400 33013G21KT P6SM BKN050 BKN080=



000
FTUS41 KOKX 230700 AAA
TAFJFK
TAF AMD
KJFK 230731Z 2308/2412 01023G32KT P6SM BKN020
      TEMPO 2308/2311 5SM -RA BR BKN012
     FM231100 36022G31KT 6SM BR VCSH BKN015
     FM231400 34021G29KT P6SM VCSH BKN015
     FM231800 33020G28KT P6SM BKN025 OVC035
     FM232300 33017G25KT P6SM BKN040 BKN080
     FM240400 33015G21KT P6SM BKN050 BKN080=



000
FTUS41 KOKX 230700 AAA
TAFTEB
TAF AMD
KTEB 230731Z 2308/2406 36015G25KT P6SM BKN020
      TEMPO 2308/2311 5SM -RA BR BKN012
     FM231100 35015G24KT 6SM BR VCSH BKN015
     FM231400 34015G23KT P6SM VCSH BKN015
     FM231800 33013G22KT P6SM BKN030 OVC040
     FM232200 33016G23KT P6SM BKN040 BKN080
     FM240200 33011G16KT P6SM BKN050 BKN080=



000
FTUS41 KOKX 230500
TAFEWR
TAF
KEWR 230528Z 2306/2412 36020G29KT P6SM BKN015
      TEMPO 2306/2309 5SM -RA BR SCT015 BKN030
     FM230900 35020G28KT 6SM BR VCSH BKN010
     FM231400 34020G28KT P6SM VCSH BKN015
     FM231800 33019G26KT P6SM BKN025 OVC035
     FM232200 33016G23KT P6SM BKN040 BKN080
     FM240400 33014G20KT P6SM BKN050 BKN080=



000
FTUS41 KOKX 230500
TAFTEB
TAF
KTEB 230528Z 2306/2406 36016G25KT P6SM BKN015
      TEMPO 2306/2309 5SM -RA BR SCT015 BKN030
     FM230900 35016G24KT 6SM BR VCSH BKN010
     FM231400 34015G23KT P6SM VCSH BKN015
     FM231800 33013G22KT P6SM BKN030 OVC040
     FM232200 33016G23KT P6SM BKN040 BKN080
     FM240200 33011G16KT P6SM BKN050 BKN080=



000
FTUS41 KOKX 230500
TAFLGA
TAF
KLGA 230528Z 2306/2406 01020G30KT P6SM BKN015
      TEMPO 2306/2309 5SM -RA BR SCT015 BKN035
     FM230900 36020G30KT 6SM BR VCSH BKN010
     FM231400 34020G28KT P6SM VCSH BKN015
     FM231800 33019G27KT P6SM BKN025 OVC035
     FM232300 33015G24KT P6SM BKN040 BKN080
     FM240400 33013G21KT P6SM BKN050 BKN080=



000
FTUS41 KOKX 230500
TAFJFK
TAF
KJFK 230528Z 2306/2412 01023G34KT P6SM BKN015
      TEMPO 2306/2309 5SM -RA BR SCT015 BKN030
     FM230900 36022G32KT 6SM BR VCSH BKN010
     FM231400 34021G30KT P6SM VCSH BKN015
     FM231800 33020G28KT P6SM BKN025 OVC035
     FM232300 33017G25KT P6SM BKN040 BKN080
     FM240400 33015G21KT P6SM BKN050 BKN080=



000
FTUS41 KOKX 230500
TAFSWF
TAF
KSWF 230528Z 2306/2412 01017G27KT P6SM BKN015
      TEMPO 2306/2309 4SM -RA BR SCT015 BKN030
     FM230900 01015G25KT 5SM BR VCSH BKN010
     FM231400 36013G24KT P6SM VCSH BKN015
     FM231800 34013G22KT P6SM BKN025 OVC035
     FM232200 33011KT P6SM BKN035 BKN080
     FM240400 30010KT P6SM BKN040 BKN080
      AMD NOT SKED=



000
FTUS41 KOKX 230500
TAFGON
TAF
KGON 230528Z 2306/2406 02023G34KT P6SM OVC015
      TEMPO 2306/2310 5SM -RA BR BKN015 BKN030
     FM231000 01021G30KT 6SM BR VCSH BKN010
     FM231400 36019G29KT P6SM VCSH BKN015
     FM231900 35017G27KT P6SM BKN020 OVC030
     FM240100 35015G25KT P6SM FEW030 BKN040 BKN080=



000
FTUS41 KOKX 230500
TAFBDR
TAF
KBDR 230528Z 2306/2406 01022G33KT P6SM OVC015
      TEMPO 2306/2309 5SM -RA BR SCT015 BKN035
     FM230900 01021G29KT 6SM BR VCSH BKN010
     FM231400 35018G27KT P6SM VCSH BKN015
     FM231900 34017G26KT P6SM BKN025 OVC035
     FM240000 33015G24KT P6SM BKN040 BKN080
     FM240400 33013G22KT P6SM BKN050 BKN080=



000
FTUS41 KOKX 230500
TAFISP
TAF
KISP 230528Z 2306/2406 01022G33KT P6SM OVC015
      TEMPO 2306/2309 5SM -RA BR BKN015 BKN030
     FM230900 36021G30KT 6SM BR VCSH BKN010
     FM231400 34019G29KT P6SM VCSH BKN015
     FM231900 34017G27KT P6SM BKN025 OVC035
     FM240000 33015G25KT P6SM BKN040 BKN080
     FM240400 33013G22KT P6SM BKN050 BKN080=



000
FTUS41 KOKX 230300 AAE
TAFBDR
TAF AMD
KBDR 230350Z 2304/2324 01022G33KT 6SM -RA BR SCT020 BKN050
      WS020/03050KT
      TEMPO 2304/2308 4SM RA BR BKN020
     FM230800 01018G26KT 6SM BR VCSH BKN010
     FM231400 35018G26KT 6SM BR VCSH BKN015
     FM231800 34016G24KT P6SM BKN020 OVC035=



000
FTUS41 KOKX 230300 AAE
TAFGON
TAF AMD
KGON 230349Z 2304/2324 02019G30KT 6SM RA VCTS SCT015CB BKN035
      WS020/03050KT
      TEMPO 2304/2305 4SM RA BR BKN015
     FM230500 02021G33KT 4SM RA BR BKN015 OVC035 WS020/03050KT
     FM230600 02018G27KT 4SM -RA BR BKN010
     FM231300 01015G23KT 6SM BR VCSH BKN015
     FM231700 36014G22KT P6SM BKN015=



000
FTUS41 KOKX 230300 AAE
TAFGON
TAF AMD
KGON 230349Z 2304/2324 02019G30KT 6SM RA VCTS SCT015CB BKN035
      WS020/03050KT
      TEMPO 2304/2305 4SM RA BR BKN015
     FM230500 02021G33KT 4SM RA BR BKN015 OVC035 WS020/03050KT
     FM230600 02018G27KT 4SM -RA BR BKN010
     FM231300 01015G23KT 6SM BR VCSH BKN015
     FM231700 36014G22KT P6SM BKN015=



000
FTUS41 KOKX 230300 AAD
TAFBDR
TAF AMD
KBDR 230306Z 2303/2324 01022G33KT 4SM RA BR BKN015 WS020/03055KT
      TEMPO 2303/2306 6SM -RA BR SCT015 BKN050
     FM230800 01018G26KT 6SM BR VCSH BKN010
     FM231400 35018G26KT 6SM BR VCSH BKN015
     FM231800 34016G24KT P6SM BKN020 OVC035=



000
FTUS41 KOKX 230200 AAD
TAFGON
TAF AMD
KGON 230246Z 2303/2324 02018G26KT 6SM RA VCTS SCT015CB BKN035
      WS020/03050KT
      TEMPO 2303/2304 4SM RA BR BKN015
     FM230400 02021G33KT 4SM RA BR BKN015 OVC035 WS020/03050KT
     FM230600 02018G27KT 4SM -RA BR BKN010
     FM231300 01015G23KT 6SM BR VCSH BKN015
     FM231700 36014G22KT P6SM BKN015=



000
FTUS41 KOKX 230200 AAC
TAFBDR
TAF AMD
KBDR 230229Z 2302/2324 01020G32KT 4SM RA BR BKN015 WS020/03055KT
      TEMPO 2302/2306 6SM -RA BR SCT015 BKN025
     FM230800 01018G26KT 6SM BR VCSH BKN010
     FM231400 35018G26KT 6SM BR VCSH BKN015
     FM231800 34016G24KT P6SM BKN020 OVC035=



000
FTUS41 KOKX 230200 AAB
TAFISP
TAF AMD
KISP 230228Z 2302/2324 01020G31KT 4SM RA BR BKN015 OVC020
      WS020/03055KT
     FM230700 36020G29KT 6SM BR VCSH BKN010
     FM231400 34019G27KT 6SM BR VCSH BKN015
     FM231900 34016G24KT P6SM BKN020 OVC035=



000
FTUS41 KOKX 230200 AAC
TAFTEB
TAF AMD
KTEB 230219Z 2302/2324 36014G24KT 6SM -RA SCT015 BKN025 OVC030
      WS020/03050KT
      TEMPO 2302/2304 4SM RA BR BKN015
     FM230400 35017G26KT 4SM -RA BR BKN015 WS020/03050KT
     FM230800 35016G24KT 6SM BR VCSH BKN010
     FM231400 33015G23KT 6SM BR VCSH BKN015
     FM231800 33013G21KT P6SM BKN020 OVC035=



000
FTUS41 KOKX 230200 AAC
TAFTEB
TAF AMD
KTEB 230219Z 2302/2324 36014G24KT 6SM -RA SCT015 BKN025 OVC030
      WS020/03050KT
      TEMPO 2302/2304 4SM RA BR BKN015
     FM230400 35017G26KT 4SM -RA BR BKN015 WS020/03050KT
     FM230800 35016G24KT 6SM BR VCSH BKN010
     FM231400 33015G23KT 6SM BR VCSH BKN015
     FM231800 33013G21KT P6SM BKN020 OVC035=



000
FTUS41 KOKX 230200 AAC
TAFJFK
TAF AMD
KJFK 230218Z 2302/2406 35018G27KT 6SM -RA BR SCT015 BKN025 OVC035
      WS020/03050KT
      TEMPO 2302/2304 5SM RA BR BKN015
     FM230400 35023G35KT 4SM -RA BR BKN015 WS020/03050KT
     FM230800 35022G33KT 6SM BR VCSH BKN010
     FM231400 33021G29KT 6SM BR VCSH BKN015
     FM231800 33020G28KT P6SM BKN020 OVC035
     FM232300 32017G25KT P6SM BKN040 BKN080=



000
FTUS41 KOKX 230200 AAC
TAFLGA
TAF AMD
KLGA 230218Z 2302/2324 36018G27KT 6SM -RA BR SCT015 BKN025
      WS020/03050KT
      TEMPO 2302/2304 4SM RA BR BKN015
     FM230400 36020G32KT 4SM -RA BR BKN015 WS020/03050KT
     FM230800 36021G30KT 6SM BR VCSH BKN010
     FM231400 34020G28KT 6SM BR VCSH BKN015
     FM231800 34019G27KT P6SM BKN020 OVC035=



000
FTUS41 KOKX 230200 AAC
TAFLGA
TAF AMD
KLGA 230218Z 2302/2324 36018G27KT 6SM -RA BR SCT015 BKN025
      WS020/03050KT
      TEMPO 2302/2304 4SM RA BR BKN015
     FM230400 36020G32KT 4SM -RA BR BKN015 WS020/03050KT
     FM230800 36021G30KT 6SM BR VCSH BKN010
     FM231400 34020G28KT 6SM BR VCSH BKN015
     FM231800 34019G27KT P6SM BKN020 OVC035=



000
FTUS41 KOKX 230200 AAC
TAFJFK
TAF AMD
KJFK 230218Z 2302/2406 35018G27KT 6SM -RA BR SCT015 BKN025 OVC035
      WS020/03050KT
      TEMPO 2302/2304 5SM RA BR BKN015
     FM230400 35023G35KT 4SM -RA BR BKN015 WS020/03050KT
     FM230800 35022G33KT 6SM BR VCSH BKN010
     FM231400 33021G29KT 6SM BR VCSH BKN015
     FM231800 33020G28KT P6SM BKN020 OVC035
     FM232300 32017G25KT P6SM BKN040 BKN080=



000
FTUS41 KOKX 230200 AAB
TAFEWR
TAF AMD
KEWR 230216Z 2302/2406 35020G31KT 4SM RA BR BKN015 BKN025 OVC035
      WS020/03050KT
      TEMPO 2302/2306 6SM -RA BR SCT015 BKN025 OVC045
     FM230800 36021G29KT 6SM BR VCSH BKN010
     FM231400 34019G27KT 6SM BR VCSH BKN015
     FM231800 33018G26KT P6SM BKN020 OVC035
     FM232300 32015G23KT P6SM BKN040 BKN080=



000
FTUS41 KOKX 230200 AAB
TAFEWR
TAF AMD
KEWR 230216Z 2302/2406 35020G31KT 4SM RA BR BKN015 BKN025 OVC035
      WS020/03050KT
      TEMPO 2302/2306 6SM -RA BR SCT015 BKN025 OVC045
     FM230800 36021G29KT 6SM BR VCSH BKN010
     FM231400 34019G27KT 6SM BR VCSH BKN015
     FM231800 33018G26KT P6SM BKN020 OVC035
     FM232300 32015G23KT P6SM BKN040 BKN080=



000
FTUS41 KOKX 230200 AAC
TAFGON
TAF AMD
KGON 230207Z 2302/2324 02023G36KT 4SM RA BR BKN015 WS020/03050KT
      TEMPO 2302/2303 3SM TSRA BR BKN015CB
     FM230600 02018G27KT 4SM -RA BR BKN010
     FM231300 01015G23KT 6SM BR VCSH BKN015
     FM231700 36014G22KT P6SM BKN015=



000
FTUS41 KOKX 230200 AAC
TAFGON
TAF AMD
KGON 230207Z 2302/2324 02023G36KT 4SM RA BR BKN015 WS020/03050KT
      TEMPO 2302/2303 3SM TSRA BR BKN015CB
     FM230600 02018G27KT 4SM -RA BR BKN010
     FM231300 01015G23KT 6SM BR VCSH BKN015
     FM231700 36014G22KT P6SM BKN015=



000
FTUS41 KOKX 230100 AAB
TAFTEB
TAF AMD
KTEB 230141Z 2302/2324 36014G23KT 5SM -RA SCT015 BKN025 OVC030
      TEMPO 2302/2304 3SM RA BR BKN015
     FM230400 35017G26KT 4SM -RA BR BKN015
     FM230800 35016G24KT 6SM BR VCSH BKN010
     FM231400 33015G23KT 6SM BR VCSH BKN015
     FM231800 33013G21KT P6SM BKN020 OVC035=



000
FTUS41 KOKX 230100 AAB
TAFTEB
TAF AMD
KTEB 230141Z 2302/2324 36014G23KT 5SM -RA SCT015 BKN025 OVC030
      TEMPO 2302/2304 3SM RA BR BKN015
     FM230400 35017G26KT 4SM -RA BR BKN015
     FM230800 35016G24KT 6SM BR VCSH BKN010
     FM231400 33015G23KT 6SM BR VCSH BKN015
     FM231800 33013G21KT P6SM BKN020 OVC035=



000
FTUS41 KOKX 230100 CCA
TAFEWR
TAF COR
KEWR 230140Z 2302/2406 36018G28KT P6SM -RA SCT015 BKN025 OVC035
      TEMPO 2302/2304 4SM RA BR BKN015
     FM230400 35020G31KT 4SM -RA BR BKN015
     FM230800 36021G29KT 6SM BR VCSH BKN010
     FM231400 34019G27KT 6SM BR VCSH BKN015
     FM231800 33018G26KT P6SM BKN020 OVC035
     FM232300 32015G23KT P6SM BKN040 BKN080=



000
FTUS41 KOKX 230100 AAB
TAFJFK
TAF AMD
KJFK 230140Z 2302/2406 35020G29KT P6SM -RA SCT015 BKN025 OVC035
      TEMPO 2302/2304 5SM RA BR BKN015
     FM230400 35023G35KT 4SM -RA BR BKN015
     FM230800 35022G33KT 6SM BR VCSH BKN010
     FM231400 33021G29KT 6SM BR VCSH BKN015
     FM231800 33020G28KT P6SM BKN020 OVC035
     FM232300 32017G25KT P6SM BKN040 BKN080=



000
FTUS41 KOKX 230100 AAB
TAFJFK
TAF AMD
KJFK 230140Z 2302/2406 35020G29KT P6SM -RA SCT015 BKN025 OVC035
      TEMPO 2302/2304 5SM RA BR BKN015
     FM230400 35023G35KT 4SM -RA BR BKN015
     FM230800 35022G33KT 6SM BR VCSH BKN010
     FM231400 33021G29KT 6SM BR VCSH BKN015
     FM231800 33020G28KT P6SM BKN020 OVC035
     FM232300 32017G25KT P6SM BKN040 BKN080=



000
FTUS41 KOKX 230100 CCA
TAFEWR
TAF COR
KEWR 230140Z 2302/2406 36018G28KT P6SM -RA SCT015 BKN025 OVC035
      TEMPO 2302/2304 4SM RA BR BKN015
     FM230400 35020G31KT 4SM -RA BR BKN015
     FM230800 36021G29KT 6SM BR VCSH BKN010
     FM231400 34019G27KT 6SM BR VCSH BKN015
     FM231800 33018G26KT P6SM BKN020 OVC035
     FM232300 32015G23KT P6SM BKN040 BKN080=



000
FTUS41 KOKX 230100 AAB
TAFLGA
TAF AMD
KLGA 230139Z 2302/2324 01016G25KT P6SM -RA SCT015 BKN025
      TEMPO 2302/2304 4SM RA BR BKN015
     FM230400 36020G32KT 4SM -RA BR BKN015
     FM230800 36021G30KT 6SM BR VCSH BKN010
     FM231400 34020G28KT 6SM BR VCSH BKN015
     FM231800 34019G27KT P6SM BKN020 OVC035=



000
FTUS41 KOKX 230100 AAB
TAFLGA
TAF AMD
KLGA 230139Z 2302/2324 01016G25KT P6SM -RA SCT015 BKN025
      TEMPO 2302/2304 4SM RA BR BKN015
     FM230400 36020G32KT 4SM -RA BR BKN015
     FM230800 36021G30KT 6SM BR VCSH BKN010
     FM231400 34020G28KT 6SM BR VCSH BKN015
     FM231800 34019G27KT P6SM BKN020 OVC035=



000
FTUS41 KOKX 230100 AAA
TAFEWR
TAF AMD
KEWR 230138Z 2302/2406 36018G28KT P6SM -RA SCT015 BKN025 OVC035
      TEMPO 2302/2303 4SM RA BR BKN015
     FM230300 35020G31KT 4SM -RA BR BKN015
     FM230800 36021G29KT 6SM BR VCSH BKN010
     FM231400 34019G27KT 6SM BR VCSH BKN015
     FM231800 33018G26KT P6SM BKN020 OVC035
     FM232300 32015G23KT P6SM BKN040 BKN080=



000
FTUS41 KOKX 230100 AAA
TAFEWR
TAF AMD
KEWR 230138Z 2302/2406 36018G28KT P6SM -RA SCT015 BKN025 OVC035
      TEMPO 2302/2303 4SM RA BR BKN015
     FM230300 35020G31KT 4SM -RA BR BKN015
     FM230800 36021G29KT 6SM BR VCSH BKN010
     FM231400 34019G27KT 6SM BR VCSH BKN015
     FM231800 33018G26KT P6SM BKN020 OVC035
     FM232300 32015G23KT P6SM BKN040 BKN080=



000
FTUS41 KOKX 230100 CCA
TAFGON
TAF COR
KGON 230137Z 2301/2324 02022G35KT 6SM -RA BR BKN015 OVC040
      WS020/03050KT
      TEMPO 2301/2302 5SM -RA BR BKN015
     FM230200 02023G36KT 4SM RA BR BKN015 WS020/03050KT
     FM230600 02018G27KT 4SM -RA BR BKN010
     FM231300 01015G23KT 6SM BR VCSH BKN015
     FM231700 36014G22KT P6SM BKN015=



000
FTUS41 KOKX 230100 CCA
TAFGON
TAF COR
KGON 230137Z 2301/2324 02022G35KT 6SM -RA BR BKN015 OVC040
      WS020/03050KT
      TEMPO 2301/2302 5SM -RA BR BKN015
     FM230200 02023G36KT 4SM RA BR BKN015 WS020/03050KT
     FM230600 02018G27KT 4SM -RA BR BKN010
     FM231300 01015G23KT 6SM BR VCSH BKN015
     FM231700 36014G22KT P6SM BKN015=



000
FTUS41 KOKX 230100 AAA
TAFISP
TAF AMD
KISP 230132Z 2302/2324 01022G34KT 4SM RA BR BKN015 OVC020
      WS020/03055KT
     FM230700 36020G29KT 6SM BR VCSH BKN010
     FM231400 34019G27KT 6SM BR VCSH BKN015
     FM231900 34016G24KT P6SM BKN020 OVC035=



000
FTUS41 KOKX 230100 AAA
TAFISP
TAF AMD
KISP 230132Z 2302/2324 01022G34KT 4SM RA BR BKN015 OVC020
      WS020/03055KT
     FM230700 36020G29KT 6SM BR VCSH BKN010
     FM231400 34019G27KT 6SM BR VCSH BKN015
     FM231900 34016G24KT P6SM BKN020 OVC035=



000
FTUS41 KOKX 230100 AAB
TAFBDR
TAF AMD
KBDR 230130Z 2302/2324 02023G35KT P6SM -RA SCT020 BKN045 OVC080
     FM230200 01024G36KT 6SM -RA BR BKN015 WS020/03055KT
     FM230800 01018G26KT 6SM BR VCSH BKN010
     FM231400 35018G26KT 6SM BR VCSH BKN015
     FM231800 34016G24KT P6SM BKN020 OVC035=



000
FTUS41 KOKX 230100 AAB
TAFBDR
TAF AMD
KBDR 230130Z 2302/2324 02023G35KT P6SM -RA SCT020 BKN045 OVC080
     FM230200 01024G36KT 6SM -RA BR BKN015 WS020/03055KT
     FM230800 01018G26KT 6SM BR VCSH BKN010
     FM231400 35018G26KT 6SM BR VCSH BKN015
     FM231800 34016G24KT P6SM BKN020 OVC035=



000
FTUS41 KOKX 230100 AAB
TAFGON
TAF AMD
KGON 230128Z 2301/2324 02022G35KT 6SM -RA BR BKN015 OVC040
      WS020/03050KT
      TEMPO 2301/2302 5SM -RA BR BKN015
     FM230200 02023G36KT 4SM RA BR BKN015
     FM230600 02018G27KT 4SM -RA BR BKN010
     FM231300 01015G23KT 6SM BR VCSH BKN015
     FM231700 36014G22KT P6SM BKN015=



000
FTUS41 KOKX 230100 AAB
TAFGON
TAF AMD
KGON 230128Z 2301/2324 02022G35KT 6SM -RA BR BKN015 OVC040
      WS020/03050KT
      TEMPO 2301/2302 5SM -RA BR BKN015
     FM230200 02023G36KT 4SM RA BR BKN015
     FM230600 02018G27KT 4SM -RA BR BKN010
     FM231300 01015G23KT 6SM BR VCSH BKN015
     FM231700 36014G22KT P6SM BKN015=



000
FTUS41 KOKX 230000 AAA
TAFGON
TAF AMD
KGON 230019Z 2300/2324 02020G32KT P6SM -RA SCT015 BKN040 OVC080
      TEMPO 2300/2302 6SM -RA BR BKN015
     FM230200 02022G34KT 4SM RA BR BKN015
     FM230600 02018G27KT 4SM -RA BR BKN010
     FM231300 01015G23KT 6SM BR VCSH BKN015
     FM231700 36014G22KT P6SM BKN015=



000
FTUS41 KOKX 230000 AAA
TAFGON
TAF AMD
KGON 230019Z 2300/2324 02020G32KT P6SM -RA SCT015 BKN040 OVC080
      TEMPO 2300/2302 6SM -RA BR BKN015
     FM230200 02022G34KT 4SM RA BR BKN015
     FM230600 02018G27KT 4SM -RA BR BKN010
     FM231300 01015G23KT 6SM BR VCSH BKN015
     FM231700 36014G22KT P6SM BKN015=



000
FTUS41 KOKX 230000 AAA
TAFBDR
TAF AMD
KBDR 230017Z 2300/2324 02021G30KT P6SM -RA SCT020 BKN045 OVC070
      TEMPO 2300/2302 6SM RA BR BKN020
     FM230200 01022G31KT 6SM -RA BR BKN015
     FM230800 01018G26KT 6SM BR VCSH BKN010
     FM231400 35018G26KT 6SM BR VCSH BKN015
     FM231800 34016G24KT P6SM BKN020 OVC035=



000
FTUS41 KOKX 230000 AAA
TAFBDR
TAF AMD
KBDR 230017Z 2300/2324 02021G30KT P6SM -RA SCT020 BKN045 OVC070
      TEMPO 2300/2302 6SM RA BR BKN020
     FM230200 01022G31KT 6SM -RA BR BKN015
     FM230800 01018G26KT 6SM BR VCSH BKN010
     FM231400 35018G26KT 6SM BR VCSH BKN015
     FM231800 34016G24KT P6SM BKN020 OVC035=



000
FTUS41 KOKX 230000 AAA
TAFTEB
TAF AMD
KTEB 230015Z 2300/2324 36012G19KT 5SM -RA SCT015 BKN025 OVC030
      TEMPO 2300/2303 3SM RA BR BKN015
     FM230300 35015G23KT 4SM -RA BR BKN015
     FM230800 35016G24KT 6SM BR VCSH BKN010
     FM231400 33015G23KT 6SM BR VCSH BKN015
     FM231800 33013G21KT P6SM BKN020 OVC035=



000
FTUS41 KOKX 230000 AAA
TAFTEB
TAF AMD
KTEB 230015Z 2300/2324 36012G19KT 5SM -RA SCT015 BKN025 OVC030
      TEMPO 2300/2303 3SM RA BR BKN015
     FM230300 35015G23KT 4SM -RA BR BKN015
     FM230800 35016G24KT 6SM BR VCSH BKN010
     FM231400 33015G23KT 6SM BR VCSH BKN015
     FM231800 33013G21KT P6SM BKN020 OVC035=



000
FTUS41 KOKX 230000 AAA
TAFJFK
TAF AMD
KJFK 230013Z 2300/2406 35018G27KT P6SM -RA SCT015 BKN025 OVC035
      TEMPO 2300/2302 5SM RA BR BKN015
     FM230200 35021G30KT 4SM -RA BR BKN015
     FM230800 35023G31KT 6SM BR VCSH BKN010
     FM231400 33021G29KT 6SM BR VCSH BKN015
     FM231800 33020G28KT P6SM BKN020 OVC035
     FM232300 32017G25KT P6SM BKN040 BKN080=



000
FTUS41 KOKX 230000 AAA
TAFLGA
TAF AMD
KLGA 230013Z 2300/2324 01014G23KT P6SM -RA SCT015 BKN025
      TEMPO 2300/2302 4SM RA BR BKN015
     FM230200 36017G26KT 4SM -RA BR BKN015
     FM230800 36021G28KT 6SM BR VCSH BKN010
     FM231400 34020G28KT 6SM BR VCSH BKN015
     FM231800 34019G27KT P6SM BKN020 OVC035=



000
FTUS41 KOKX 230000 AAA
TAFJFK
TAF AMD
KJFK 230013Z 2300/2406 35018G27KT P6SM -RA SCT015 BKN025 OVC035
      TEMPO 2300/2302 5SM RA BR BKN015
     FM230200 35021G30KT 4SM -RA BR BKN015
     FM230800 35023G31KT 6SM BR VCSH BKN010
     FM231400 33021G29KT 6SM BR VCSH BKN015
     FM231800 33020G28KT P6SM BKN020 OVC035
     FM232300 32017G25KT P6SM BKN040 BKN080=



000
FTUS41 KOKX 230000 AAA
TAFLGA
TAF AMD
KLGA 230013Z 2300/2324 01014G23KT P6SM -RA SCT015 BKN025
      TEMPO 2300/2302 4SM RA BR BKN015
     FM230200 36017G26KT 4SM -RA BR BKN015
     FM230800 36021G28KT 6SM BR VCSH BKN010
     FM231400 34020G28KT 6SM BR VCSH BKN015
     FM231800 34019G27KT P6SM BKN020 OVC035=



000
FTUS41 KOKX 222300 CCA
TAFBDR
TAF COR
KBDR 222344Z 2300/2324 02019G28KT 5SM -RA BR SCT015 BKN040 OVC070
      TEMPO 2300/2302 3SM RA BR BKN015
     FM230200 01021G30KT 4SM -RA BR BKN015
     FM230800 01018G26KT 6SM BR VCSH BKN010
     FM231400 35018G26KT 6SM BR VCSH BKN015
     FM231800 34016G24KT P6SM BKN020 OVC035=



000
FTUS41 KOKX 222300 RRA
TAFSWF
TAF
KSWF 222343Z 2300/2406 01015G22KT 4SM BR VCSH BKN015
     FM230400 36016G24KT 4SM -RA BR BKN010
     FM231300 36012G20KT 4SM BR VCSH BKN015
     FM231700 35013G21KT 6SM -DZ BR BKN020 OVC035
     FM232200 33010KT P6SM BKN035 BKN050
      AMD NOT SKED=



000
FTUS41 KOKX 222300 RRA
TAFTEB
TAF
KTEB 222343Z 2300/2324 36012G18KT 4SM -RA BKN015 OVC025
      TEMPO 2300/2303 2SM RA BR BKN015
     FM230300 35015G23KT 4SM -RA BR BKN015
     FM230800 35016G24KT 6SM BR VCSH BKN010
     FM231400 33015G23KT 6SM BR VCSH BKN015
     FM231800 33013G21KT P6SM BKN020 OVC035=



000
FTUS41 KOKX 222300 RRA
TAFJFK
TAF
KJFK 222343Z 2300/2406 35016G26KT P6SM -RA BKN015 OVC025
      TEMPO 2300/2302 4SM RA BR BKN010
     FM230200 35021G30KT 4SM -RA BR BKN015
     FM230800 35023G31KT 6SM BR VCSH BKN010
     FM231400 33021G29KT 6SM BR VCSH BKN015
     FM231800 33020G28KT P6SM BKN020 OVC035
     FM232300 32017G25KT P6SM BKN040 BKN080=



000
FTUS41 KOKX 222300 RRA
TAFEWR
TAF
KEWR 222343Z 2300/2406 36016G24KT 6SM -RA BR SCT015 BKN025 OVC035
      TEMPO 2300/2303 4SM RA BR BKN015
     FM230300 35019G27KT 4SM -RA BR BKN015
     FM230800 36021G29KT 6SM BR VCSH BKN010
     FM231400 34019G27KT 6SM BR VCSH BKN015
     FM231800 33018G26KT P6SM BKN020 OVC035
     FM232300 32015G23KT P6SM BKN040 BKN080=



000
FTUS41 KOKX 222300 RRA
TAFISP
TAF
KISP 222343Z 2300/2324 01018G27KT 6SM -RA BR BKN015 OVC025
      TEMPO 2300/2301 4SM RA BR BKN010
     FM230100 01021G30KT 4SM -RA BR BKN015
     FM230700 36020G29KT 6SM BR VCSH BKN010
     FM231400 34019G27KT 6SM BR VCSH BKN015
     FM231900 34016G24KT P6SM BKN020 OVC035=



000
FTUS41 KOKX 222300 RRA
TAFLGA
TAF
KLGA 222343Z 2300/2324 01012G21KT P6SM -RA BKN015 OVC030
      TEMPO 2300/2302 4SM RA BR BKN010
     FM230200 36016G25KT 4SM -RA BR BKN015
     FM230800 36021G28KT 6SM BR VCSH BKN010
     FM231400 34020G28KT 6SM BR VCSH BKN015
     FM231800 34019G27KT P6SM BKN020 OVC035=



000
FTUS41 KOKX 222300 RRA
TAFGON
TAF
KGON 222343Z 2300/2324 02020G32KT 4SM -RA BR BKN015 BKN040 OVC080
     FM230600 02018G27KT 4SM -RA BR BKN010
     FM231300 01015G23KT 6SM BR VCSH BKN015
     FM231700 36014G22KT P6SM BKN015=



000
FTUS41 KOKX 222300 RRA
TAFBDR
TAF
KBDR 222343Z 2300/2324 02019G28KT 5SM -RA BR SCT015 BKN040 OVC070
      TEMPO 2300/2302 2SM RA BR BKN015
     FM230200 01021G30KT 4SM -RA BR BKN015
     FM230800 01018G26KT 6SM BR VCSH BKN010
     FM231400 35018G26KT 6SM BR VCSH BKN015
     FM231800 34016G24KT P6SM BKN020 OVC035=



000
FTUS41 KOKX 222200 AAB
TAFBDR
TAF AMD
KBDR 222210Z 2222/2318 02017G25KT P6SM -SHRA BKN015 OVC025
     FM230000 01018G28KT 4SM -RA BR BKN012
     FM230500 35018G28KT 4SM -RA BR BKN009
     FM231300 25016G28KT 6SM BR VCSH BKN015=



000
FTUS41 KOKX 222200 AAB
TAFBDR
TAF AMD
KBDR 222210Z 2222/2318 02017G25KT P6SM -SHRA BKN015 OVC025
     FM230000 01018G28KT 4SM -RA BR BKN012
     FM230500 35018G28KT 4SM -RA BR BKN009
     FM231300 25016G28KT 6SM BR VCSH BKN015=



000
FTUS41 KOKX 222200 AAB
TAFTEB
TAF AMD
KTEB 222207Z 2222/2318 01012G19KT 5SM -SHRA BR BKN015 OVC025
     FM230000 36015G22KT 4SM -RA BR BKN015
     FM230600 34014G20KT 4SM -RA BR BKN015
     FM231300 34014G22KT 6SM BR VCSH BKN015=



000
FTUS41 KOKX 222200 CCA
TAFLGA
TAF COR
KLGA 222205Z 2222/2318 01013G20KT 6SM -SHRA BR BKN015 OVC025
     FM230000 36020G29KT 4SM -RA BR BKN015
     FM230600 35018G28KT 4SM -RA BR BKN015
     FM231300 33020G30KT 6SM BR VCSH BKN015=



000
FTUS41 KOKX 222200 AAB
TAFJFK
TAF AMD
KJFK 222205Z 2222/2324 36018G25KT 6SM SHRA BR BKN015 OVC025
     FM230000 35022G29KT 4SM -RA BR BKN015
     FM230600 34018G28KT 4SM -RA BR BKN010
     FM231300 33020G30KT 6SM BR VCSH BKN015
     FM231800 33020G30KT P6SM OVC025=



000
FTUS41 KOKX 222200 AAB
TAFLGA
TAF AMD
KLGA 222204Z 2222/2318 03013G20KT 6SM -SHRA BR BKN015 OVC025
     FM230000 36020G29KT 4SM -RA BR BKN015
     FM230600 35018G28KT 4SM -RA BR BKN015
     FM231300 33020G30KT 6SM BR VCSH BKN015=



000
FTUS41 KOKX 222100 AAB
TAFGON
TAF AMD
KGON 222103Z 2221/2318 02020G29KT 4SM RA BR BKN015 OVC025
     FM230500 02016G26KT 4SM -RA BR BKN009
     FM231400 02014G26KT 6SM BR VCSH BKN015=



000
FTUS41 KOKX 221900 AAA
TAFSWF
TAF AMD
KSWF 221931Z 2220/2324 02015G22KT P6SM VCSH BKN015
     FM230100 01016G24KT 3SM -RA BR BKN009
     FM230700 36016KT 6SM BR VCSH BKN009
     FM231300 36014G20KT 5SM BR VCSH BKN015
     FM231800 35014G20KT P6SM OVC025
      AMD NOT SKED=



000
FTUS41 KOKX 221900 AAA
TAFLGA
TAF AMD
KLGA 221931Z 2220/2318 03017G25KT 6SM SHRA BR BKN020 OVC025
     FM230000 36020G29KT 4SM -RA BR BKN015
     FM230600 35018G28KT 4SM -RA BR BKN015
     FM231300 33020G30KT 6SM BR VCSH BKN015=



000
FTUS41 KOKX 221900 AAA
TAFTEB
TAF AMD
KTEB 221931Z 2220/2318 01012G18KT 6SM BR VCSH BKN020 OVC025
     FM230000 36015G22KT 4SM -RA BR BKN015
     FM230600 34014G20KT 4SM -RA BR BKN015
     FM231300 34014G22KT 6SM BR VCSH BKN015=



000
FTUS41 KOKX 221900 AAA
TAFGON
TAF AMD
KGON 221931Z 2220/2318 03014G26KT P6SM VCSH BKN015 OVC020
     FM222100 03016G26KT 3SM RA BR BKN009 BKN020
     FM230500 02016G26KT 4SM -RA BR BKN009
     FM231400 02014G26KT 6SM BR VCSH BKN015=



000
FTUS41 KOKX 221900 AAA
TAFJFK
TAF AMD
KJFK 221931Z 2220/2324 02018G25KT 6SM SHRA BR BKN020 OVC025
     FM230000 35022G29KT 4SM -RA BR BKN015
     FM230600 34018G28KT 4SM -RA BR BKN010
     FM231300 33020G30KT 6SM BR VCSH BKN015
     FM231800 33020G30KT P6SM OVC025=



000
FTUS41 KOKX 221900 AAA
TAFEWR
TAF AMD
KEWR 221931Z 2220/2324 01015G23KT 6SM SHRA BR BKN020 OVC025
     FM230000 35018G28KT 4SM -RA BR BKN015
     FM230600 34016G26KT 4SM -RA BR BKN015
     FM231300 34018G28KT 6SM BR VCSH BKN015
     FM231800 33018G30KT P6SM OVC025=



000
FTUS41 KOKX 221900 AAA
TAFISP
TAF AMD
KISP 221931Z 2220/2318 02017G24KT P6SM VCSH BKN015 OVC020
     FM222200 01018G28KT 4SM -RA BR BKN015
     FM230600 36018G28KT 4SM -RA BR BKN012
     FM231300 25016G28KT 6SM BR VCSH BKN015=



000
FTUS41 KOKX 221900 AAA
TAFBDR
TAF AMD
KBDR 221931Z 2220/2318 02016G24KT P6SM VCSH BKN020 BKN040
     FM222300 01018G28KT 4SM -RA BR BKN012
     FM230500 35018G28KT 4SM -RA BR BKN009
     FM231300 25016G28KT 6SM BR VCSH BKN015=



    US Dept of Commerce
    National Oceanic and Atmospheric Administration
    National Weather Service
    1325 East West Highway
    Silver Spring, MD 20910
    Page Author: NWS Internet Services Team
Disclaimer
Information Quality
Credits
Glossary
Privacy Policy
Freedom of Information Act (FOIA)
About Us
Career Opportunities